<?xml version="1.0" encoding="UTF-8" standalone="no" ?>
<gpx xmlns="http://www.topografix.com/GPX/1/1" xmlns:xsi="http://www.w3.org/2001/XMLSchema-instance" xsi:schemaLocation="http://www.topografix.com/GPX/1/1 http://www.topografix.com/GPX/1/1/gpx.xsd" version="1.1" creator="VisuGPX - https://www.visugpx.com">
  <metadata>
    <name>Mt Fourchon par le col du Grd St bernard</name>
  </metadata>
  <trk>
    <name><![CDATA[Mt Fourchon par le col du Grd St bernard]]></name>
    <trkseg>
      <trkpt lat="45.89951" lon="7.1957">
        <ele>1785</ele>
        <time>2014-12-22T11:37:53Z</time>
      </trkpt>
      <trkpt lat="45.89951" lon="7.19572">
        <ele>1785</ele>
        <time>2014-12-22T11:37:56Z</time>
      </trkpt>
      <trkpt lat="45.89949" lon="7.19578">
        <ele>1785</ele>
        <time>2014-12-22T11:38:03Z</time>
      </trkpt>
      <trkpt lat="45.89928" lon="7.19568">
        <ele>1785</ele>
        <time>2014-12-22T11:38:19Z</time>
      </trkpt>
      <trkpt lat="45.89926" lon="7.19569">
        <ele>1785</ele>
        <time>2014-12-22T11:38:55Z</time>
      </trkpt>
      <trkpt lat="45.8992" lon="7.19571">
        <ele>1785</ele>
        <time>2014-12-22T11:39:53Z</time>
      </trkpt>
      <trkpt lat="45.8989" lon="7.1956">
        <ele>1785</ele>
        <time>2014-12-22T11:40:14Z</time>
      </trkpt>
      <trkpt lat="45.89871" lon="7.1955">
        <ele>1785</ele>
        <time>2014-12-22T11:40:26Z</time>
      </trkpt>
      <trkpt lat="45.8984" lon="7.19497">
        <ele>1788.0150016</ele>
        <time>2014-12-22T11:40:54Z</time>
      </trkpt>
      <trkpt lat="45.89828" lon="7.1947">
        <ele>1789.01400064</ele>
        <time>2014-12-22T11:41:09Z</time>
      </trkpt>
      <trkpt lat="45.89813" lon="7.19424">
        <ele>1791.31300096</ele>
        <time>2014-12-22T11:41:32Z</time>
      </trkpt>
      <trkpt lat="45.89802" lon="7.19346">
        <ele>1794.11300096</ele>
        <time>2014-12-22T11:42:10Z</time>
      </trkpt>
      <trkpt lat="45.89814" lon="7.19288">
        <ele>1797</ele>
        <time>2014-12-22T11:42:37Z</time>
      </trkpt>
      <trkpt lat="45.89836" lon="7.19207">
        <ele>1800.91300096</ele>
        <time>2014-12-22T11:43:18Z</time>
      </trkpt>
      <trkpt lat="45.89843" lon="7.19189">
        <ele>1801</ele>
        <time>2014-12-22T11:43:28Z</time>
      </trkpt>
      <trkpt lat="45.89848" lon="7.19163">
        <ele>1802</ele>
        <time>2014-12-22T11:43:42Z</time>
      </trkpt>
      <trkpt lat="45.89869" lon="7.19128">
        <ele>1804.61300096</ele>
        <time>2014-12-22T11:44:05Z</time>
      </trkpt>
      <trkpt lat="45.89884" lon="7.19109">
        <ele>1805.41300096</ele>
        <time>2014-12-22T11:44:23Z</time>
      </trkpt>
      <trkpt lat="45.89891" lon="7.19056">
        <ele>1808.42600192</ele>
        <time>2014-12-22T11:44:51Z</time>
      </trkpt>
      <trkpt lat="45.89896" lon="7.19033">
        <ele>1810.50200064</ele>
        <time>2014-12-22T11:45:03Z</time>
      </trkpt>
      <trkpt lat="45.89898" lon="7.1899">
        <ele>1813.60600064</ele>
        <time>2014-12-22T11:45:26Z</time>
      </trkpt>
      <trkpt lat="45.89895" lon="7.18973">
        <ele>1814.81300096</ele>
        <time>2014-12-22T11:45:37Z</time>
      </trkpt>
      <trkpt lat="45.89884" lon="7.18934">
        <ele>1818.12100096</ele>
        <time>2014-12-22T11:46:00Z</time>
      </trkpt>
      <trkpt lat="45.89868" lon="7.18885">
        <ele>1822.20600064</ele>
        <time>2014-12-22T11:46:29Z</time>
      </trkpt>
      <trkpt lat="45.89855" lon="7.18845">
        <ele>1825.51300096</ele>
        <time>2014-12-22T11:46:54Z</time>
      </trkpt>
      <trkpt lat="45.89843" lon="7.18815">
        <ele>1826.71300096</ele>
        <time>2014-12-22T11:47:16Z</time>
      </trkpt>
      <trkpt lat="45.89827" lon="7.18789">
        <ele>1829.71300096</ele>
        <time>2014-12-22T11:47:36Z</time>
      </trkpt>
      <trkpt lat="45.89812" lon="7.1876">
        <ele>1832.82600192</ele>
        <time>2014-12-22T11:47:58Z</time>
      </trkpt>
      <trkpt lat="45.89807" lon="7.18757">
        <ele>1833.82600192</ele>
        <time>2014-12-22T11:48:03Z</time>
      </trkpt>
      <trkpt lat="45.89778" lon="7.1875">
        <ele>1836.60300032</ele>
        <time>2014-12-22T11:48:24Z</time>
      </trkpt>
      <trkpt lat="45.89738" lon="7.18729">
        <ele>1838.91300096</ele>
        <time>2014-12-22T11:48:58Z</time>
      </trkpt>
      <trkpt lat="45.89736" lon="7.18729">
        <ele>1839</ele>
        <time>2014-12-22T11:48:59Z</time>
      </trkpt>
      <trkpt lat="45.89703" lon="7.18725">
        <ele>1841.50300032</ele>
        <time>2014-12-22T11:49:23Z</time>
      </trkpt>
      <trkpt lat="45.89669" lon="7.18713">
        <ele>1843.38600192</ele>
        <time>2014-12-22T11:49:50Z</time>
      </trkpt>
      <trkpt lat="45.89631" lon="7.18695">
        <ele>1847.39300096</ele>
        <time>2014-12-22T11:50:22Z</time>
      </trkpt>
      <trkpt lat="45.89605" lon="7.18689">
        <ele>1850.5901317511</ele>
        <time>2014-12-22T11:50:44Z</time>
      </trkpt>
      <trkpt lat="45.89584" lon="7.18687">
        <ele>1853</ele>
        <time>2014-12-22T11:51:02Z</time>
      </trkpt>
      <trkpt lat="45.8955" lon="7.18678">
        <ele>1856.40600064</ele>
        <time>2014-12-22T11:51:33Z</time>
      </trkpt>
      <trkpt lat="45.89516" lon="7.18669">
        <ele>1860.62600192</ele>
        <time>2014-12-22T11:52:02Z</time>
      </trkpt>
      <trkpt lat="45.89515" lon="7.18669">
        <ele>1860.82600192</ele>
        <time>2014-12-22T11:52:03Z</time>
      </trkpt>
      <trkpt lat="45.89499" lon="7.18663">
        <ele>1862.70300032</ele>
        <time>2014-12-22T11:52:15Z</time>
      </trkpt>
      <trkpt lat="45.89481" lon="7.18656">
        <ele>1864.42600192</ele>
        <time>2014-12-22T11:52:31Z</time>
      </trkpt>
      <trkpt lat="45.89476" lon="7.18653">
        <ele>1865.42600192</ele>
        <time>2014-12-22T11:52:36Z</time>
      </trkpt>
      <trkpt lat="45.89451" lon="7.18644">
        <ele>1867.02300032</ele>
        <time>2014-12-22T11:52:59Z</time>
      </trkpt>
      <trkpt lat="45.89411" lon="7.18648">
        <ele>1871.60600064</ele>
        <time>2014-12-22T11:53:31Z</time>
      </trkpt>
      <trkpt lat="45.89398" lon="7.18649">
        <ele>1873</ele>
        <time>2014-12-22T11:53:44Z</time>
      </trkpt>
      <trkpt lat="45.89359" lon="7.1865">
        <ele>1875</ele>
        <time>2014-12-22T11:54:17Z</time>
      </trkpt>
      <trkpt lat="45.89329" lon="7.18647">
        <ele>1878.5807743929</ele>
        <time>2014-12-22T11:54:41Z</time>
      </trkpt>
      <trkpt lat="45.89311" lon="7.18647">
        <ele>1881.5983870176</ele>
        <time>2014-12-22T11:54:56Z</time>
      </trkpt>
      <trkpt lat="45.89285" lon="7.18652">
        <ele>1883.01200128</ele>
        <time>2014-12-22T11:55:18Z</time>
      </trkpt>
      <trkpt lat="45.89257" lon="7.18657">
        <ele>1886.30300032</ele>
        <time>2014-12-22T11:55:41Z</time>
      </trkpt>
      <trkpt lat="45.89254" lon="7.18659">
        <ele>1886.50300032</ele>
        <time>2014-12-22T11:55:43Z</time>
      </trkpt>
      <trkpt lat="45.89235" lon="7.18668">
        <ele>1889.60600064</ele>
        <time>2014-12-22T11:56:01Z</time>
      </trkpt>
      <trkpt lat="45.89208" lon="7.18677">
        <ele>1893.20600064</ele>
        <time>2014-12-22T11:56:24Z</time>
      </trkpt>
      <trkpt lat="45.89188" lon="7.18684">
        <ele>1895.40500096</ele>
        <time>2014-12-22T11:56:42Z</time>
      </trkpt>
      <trkpt lat="45.89158" lon="7.18695">
        <ele>1899.20300032</ele>
        <time>2014-12-22T11:57:10Z</time>
      </trkpt>
      <trkpt lat="45.89157" lon="7.18696">
        <ele>1899.30300032</ele>
        <time>2014-12-22T11:57:11Z</time>
      </trkpt>
      <trkpt lat="45.89131" lon="7.18722">
        <ele>1903.60600064</ele>
        <time>2014-12-22T11:57:46Z</time>
      </trkpt>
      <trkpt lat="45.89095" lon="7.18755">
        <ele>1906.98600192</ele>
        <time>2014-12-22T11:58:23Z</time>
      </trkpt>
      <trkpt lat="45.8907" lon="7.18772">
        <ele>1910.40600064</ele>
        <time>2014-12-22T11:58:45Z</time>
      </trkpt>
      <trkpt lat="45.89039" lon="7.18789">
        <ele>1914.184</ele>
        <time>2014-12-22T11:59:14Z</time>
      </trkpt>
      <trkpt lat="45.89011" lon="7.18811">
        <ele>1917.40700032</ele>
        <time>2014-12-22T11:59:42Z</time>
      </trkpt>
      <trkpt lat="45.88998" lon="7.18827">
        <ele>1918.90700032</ele>
        <time>2014-12-22T11:59:57Z</time>
      </trkpt>
      <trkpt lat="45.88985" lon="7.1884">
        <ele>1921.0865197028</ele>
        <time>2014-12-22T12:00:09Z</time>
      </trkpt>
      <trkpt lat="45.88956" lon="7.18867">
        <ele>1924.20300032</ele>
        <time>2014-12-22T12:00:40Z</time>
      </trkpt>
      <trkpt lat="45.88954" lon="7.18867">
        <ele>1924.30300032</ele>
        <time>2014-12-22T12:00:41Z</time>
      </trkpt>
      <trkpt lat="45.88916" lon="7.18874">
        <ele>1927</ele>
        <time>2014-12-22T12:01:12Z</time>
      </trkpt>
      <trkpt lat="45.8887" lon="7.18874">
        <ele>1931.88600064</ele>
        <time>2014-12-22T12:01:57Z</time>
      </trkpt>
      <trkpt lat="45.88833" lon="7.18879">
        <ele>1936.58600192</ele>
        <time>2014-12-22T12:02:31Z</time>
      </trkpt>
      <trkpt lat="45.88816" lon="7.1888">
        <ele>1938</ele>
        <time>2014-12-22T12:02:44Z</time>
      </trkpt>
      <trkpt lat="45.88786" lon="7.18881">
        <ele>1941</ele>
        <time>2014-12-22T12:03:11Z</time>
      </trkpt>
      <trkpt lat="45.88748" lon="7.18874">
        <ele>1944.50300032</ele>
        <time>2014-12-22T12:03:43Z</time>
      </trkpt>
      <trkpt lat="45.88727" lon="7.18851">
        <ele>1948.60600064</ele>
        <time>2014-12-22T12:04:06Z</time>
      </trkpt>
      <trkpt lat="45.88702" lon="7.18816">
        <ele>1952.10300032</ele>
        <time>2014-12-22T12:04:39Z</time>
      </trkpt>
      <trkpt lat="45.88691" lon="7.18806">
        <ele>1953.7805379049</ele>
        <time>2014-12-22T12:04:52Z</time>
      </trkpt>
      <trkpt lat="45.88679" lon="7.1879">
        <ele>1955</ele>
        <time>2014-12-22T12:05:06Z</time>
      </trkpt>
      <trkpt lat="45.88661" lon="7.18777">
        <ele>1956.6881283296</ele>
        <time>2014-12-22T12:05:25Z</time>
      </trkpt>
      <trkpt lat="45.8864" lon="7.18776">
        <ele>1960</ele>
        <time>2014-12-22T12:05:50Z</time>
      </trkpt>
      <trkpt lat="45.8864" lon="7.18787">
        <ele>1960</ele>
        <time>2014-12-22T12:05:58Z</time>
      </trkpt>
      <trkpt lat="45.88641" lon="7.18795">
        <ele>1963.6219525203</ele>
        <time>2014-12-22T12:06:07Z</time>
      </trkpt>
      <trkpt lat="45.88642" lon="7.18804">
        <ele>1965.20300032</ele>
        <time>2014-12-22T12:06:20Z</time>
      </trkpt>
      <trkpt lat="45.88638" lon="7.18819">
        <ele>1967.024</ele>
        <time>2014-12-22T12:06:34Z</time>
      </trkpt>
      <trkpt lat="45.88622" lon="7.18811">
        <ele>1968</ele>
        <time>2014-12-22T12:06:44Z</time>
      </trkpt>
      <trkpt lat="45.8861" lon="7.18789">
        <ele>1969.38600064</ele>
        <time>2014-12-22T12:07:02Z</time>
      </trkpt>
      <trkpt lat="45.88593" lon="7.18755">
        <ele>1973.0884149594</ele>
        <time>2014-12-22T12:07:29Z</time>
      </trkpt>
      <trkpt lat="45.88567" lon="7.18703">
        <ele>1977.08600064</ele>
        <time>2014-12-22T12:08:09Z</time>
      </trkpt>
      <trkpt lat="45.88563" lon="7.18691">
        <ele>1977.98600064</ele>
        <time>2014-12-22T12:08:18Z</time>
      </trkpt>
      <trkpt lat="45.88555" lon="7.18674">
        <ele>1979.4054054747</ele>
        <time>2014-12-22T12:08:32Z</time>
      </trkpt>
      <trkpt lat="45.88552" lon="7.18662">
        <ele>1980.2015891316</ele>
        <time>2014-12-22T12:08:40Z</time>
      </trkpt>
      <trkpt lat="45.88535" lon="7.18635">
        <ele>1983.2880168501</ele>
        <time>2014-12-22T12:09:01Z</time>
      </trkpt>
      <trkpt lat="45.88527" lon="7.18616">
        <ele>1984</ele>
        <time>2014-12-22T12:09:16Z</time>
      </trkpt>
      <trkpt lat="45.88513" lon="7.18585">
        <ele>1988.17200128</ele>
        <time>2014-12-22T12:09:39Z</time>
      </trkpt>
      <trkpt lat="45.88502" lon="7.18567">
        <ele>1990.68600064</ele>
        <time>2014-12-22T12:09:55Z</time>
      </trkpt>
      <trkpt lat="45.88474" lon="7.18538">
        <ele>1993.8028029336</ele>
        <time>2014-12-22T12:10:26Z</time>
      </trkpt>
      <trkpt lat="45.88437" lon="7.18531">
        <ele>1997</ele>
        <time>2014-12-22T12:11:00Z</time>
      </trkpt>
      <trkpt lat="45.88431" lon="7.18531">
        <ele>1997</ele>
        <time>2014-12-22T12:11:06Z</time>
      </trkpt>
      <trkpt lat="45.88403" lon="7.18533">
        <ele>2000.7651154855</ele>
        <time>2014-12-22T12:11:32Z</time>
      </trkpt>
      <trkpt lat="45.88389" lon="7.18534">
        <ele>2002.696139187</ele>
        <time>2014-12-22T12:11:45Z</time>
      </trkpt>
      <trkpt lat="45.88363" lon="7.18537">
        <ele>2006</ele>
        <time>2014-12-22T12:12:09Z</time>
      </trkpt>
      <trkpt lat="45.88357" lon="7.18537">
        <ele>2006</ele>
        <time>2014-12-22T12:12:15Z</time>
      </trkpt>
      <trkpt lat="45.88353" lon="7.18538">
        <ele>2006</ele>
        <time>2014-12-22T12:12:18Z</time>
      </trkpt>
      <trkpt lat="45.88331" lon="7.18541">
        <ele>2008.1630207001</ele>
        <time>2014-12-22T12:12:39Z</time>
      </trkpt>
      <trkpt lat="45.8832" lon="7.18544">
        <ele>2010.18600064</ele>
        <time>2014-12-22T12:12:50Z</time>
      </trkpt>
      <trkpt lat="45.8831" lon="7.18548">
        <ele>2010.98600064</ele>
        <time>2014-12-22T12:12:58Z</time>
      </trkpt>
      <trkpt lat="45.88295" lon="7.1855">
        <ele>2013.3692618799</ele>
        <time>2014-12-22T12:13:15Z</time>
      </trkpt>
      <trkpt lat="45.88288" lon="7.18547">
        <ele>2014.3813310487</ele>
        <time>2014-12-22T12:13:22Z</time>
      </trkpt>
      <trkpt lat="45.88266" lon="7.18538">
        <ele>2016.00600064</ele>
        <time>2014-12-22T12:13:38Z</time>
      </trkpt>
      <trkpt lat="45.88258" lon="7.18533">
        <ele>2016.70300032</ele>
        <time>2014-12-22T12:13:45Z</time>
      </trkpt>
      <trkpt lat="45.88257" lon="7.18529">
        <ele>2016.90500096</ele>
        <time>2014-12-22T12:13:47Z</time>
      </trkpt>
      <trkpt lat="45.88236" lon="7.18512">
        <ele>2020.1768299187</ele>
        <time>2014-12-22T12:14:09Z</time>
      </trkpt>
      <trkpt lat="45.88219" lon="7.18491">
        <ele>2022</ele>
        <time>2014-12-22T12:14:29Z</time>
      </trkpt>
      <trkpt lat="45.88196" lon="7.18466">
        <ele>2024.70300032</ele>
        <time>2014-12-22T12:14:55Z</time>
      </trkpt>
      <trkpt lat="45.88172" lon="7.18443">
        <ele>2028.40600064</ele>
        <time>2014-12-22T12:15:22Z</time>
      </trkpt>
      <trkpt lat="45.88169" lon="7.18439">
        <ele>2028.70300032</ele>
        <time>2014-12-22T12:15:25Z</time>
      </trkpt>
      <trkpt lat="45.88135" lon="7.18424">
        <ele>2031.7997970732</ele>
        <time>2014-12-22T12:15:56Z</time>
      </trkpt>
      <trkpt lat="45.88133" lon="7.18423">
        <ele>2032</ele>
        <time>2014-12-22T12:15:58Z</time>
      </trkpt>
      <trkpt lat="45.88131" lon="7.18421">
        <ele>2032</ele>
        <time>2014-12-22T12:16:00Z</time>
      </trkpt>
      <trkpt lat="45.88112" lon="7.18417">
        <ele>2032.78748829</ele>
        <time>2014-12-22T12:16:16Z</time>
      </trkpt>
      <trkpt lat="45.88095" lon="7.18407">
        <ele>2035.384</ele>
        <time>2014-12-22T12:16:32Z</time>
      </trkpt>
      <trkpt lat="45.88078" lon="7.18405">
        <ele>2037.1098906439</ele>
        <time>2014-12-22T12:17:27Z</time>
      </trkpt>
      <trkpt lat="45.88056" lon="7.18398">
        <ele>2041.1499531599</ele>
        <time>2014-12-22T12:18:36Z</time>
      </trkpt>
      <trkpt lat="45.88022" lon="7.18389">
        <ele>2044.8016115373</ele>
        <time>2014-12-22T12:19:06Z</time>
      </trkpt>
      <trkpt lat="45.87992" lon="7.18384">
        <ele>2048</ele>
        <time>2014-12-22T12:19:35Z</time>
      </trkpt>
      <trkpt lat="45.87984" lon="7.18378">
        <ele>2049.00600064</ele>
        <time>2014-12-22T12:19:43Z</time>
      </trkpt>
      <trkpt lat="45.87962" lon="7.18378">
        <ele>2052.60600064</ele>
        <time>2014-12-22T12:20:06Z</time>
      </trkpt>
      <trkpt lat="45.87931" lon="7.18382">
        <ele>2055.98600064</ele>
        <time>2014-12-22T12:20:38Z</time>
      </trkpt>
      <trkpt lat="45.87913" lon="7.18379">
        <ele>2058.7789899795</ele>
        <time>2014-12-22T12:20:56Z</time>
      </trkpt>
      <trkpt lat="45.87898" lon="7.18378">
        <ele>2060.30300032</ele>
        <time>2014-12-22T12:21:11Z</time>
      </trkpt>
      <trkpt lat="45.87851" lon="7.18356">
        <ele>2065.81200128</ele>
        <time>2014-12-22T12:21:57Z</time>
      </trkpt>
      <trkpt lat="45.87824" lon="7.18352">
        <ele>2070.00600064</ele>
        <time>2014-12-22T12:22:23Z</time>
      </trkpt>
      <trkpt lat="45.87823" lon="7.18352">
        <ele>2070.20600064</ele>
        <time>2014-12-22T12:22:24Z</time>
      </trkpt>
      <trkpt lat="45.87799" lon="7.1835">
        <ele>2074.00600064</ele>
        <time>2014-12-22T12:22:53Z</time>
      </trkpt>
      <trkpt lat="45.87781" lon="7.18355">
        <ele>2077.37200128</ele>
        <time>2014-12-22T12:23:10Z</time>
      </trkpt>
      <trkpt lat="45.87752" lon="7.1835">
        <ele>2082</ele>
        <time>2014-12-22T12:23:42Z</time>
      </trkpt>
      <trkpt lat="45.87728" lon="7.18335">
        <ele>2085.77200128</ele>
        <time>2014-12-22T12:24:12Z</time>
      </trkpt>
      <trkpt lat="45.87709" lon="7.18311">
        <ele>2089.7915416851</ele>
        <time>2014-12-22T12:24:36Z</time>
      </trkpt>
      <trkpt lat="45.87691" lon="7.18301">
        <ele>2093.80300032</ele>
        <time>2014-12-22T12:24:56Z</time>
      </trkpt>
      <trkpt lat="45.8767" lon="7.1829">
        <ele>2096.97200128</ele>
        <time>2014-12-22T12:25:23Z</time>
      </trkpt>
      <trkpt lat="45.87658" lon="7.18285">
        <ele>2097.792</ele>
        <time>2014-12-22T12:26:56Z</time>
      </trkpt>
      <trkpt lat="45.87651" lon="7.18278">
        <ele>2098.5104262132</ele>
        <time>2014-12-22T12:27:33Z</time>
      </trkpt>
      <trkpt lat="45.87622" lon="7.18266">
        <ele>2094</ele>
        <time>2014-12-22T12:27:54Z</time>
      </trkpt>
      <trkpt lat="45.87619" lon="7.18263">
        <ele>2094</ele>
        <time>2014-12-22T12:27:56Z</time>
      </trkpt>
      <trkpt lat="45.87584" lon="7.18225">
        <ele>2096.3896622757</ele>
        <time>2014-12-22T12:28:32Z</time>
      </trkpt>
      <trkpt lat="45.87562" lon="7.18215">
        <ele>2099.9778678613</ele>
        <time>2014-12-22T12:28:53Z</time>
      </trkpt>
      <trkpt lat="45.87546" lon="7.18205">
        <ele>2103.28600064</ele>
        <time>2014-12-22T12:29:11Z</time>
      </trkpt>
      <trkpt lat="45.87518" lon="7.18192">
        <ele>2109.3538782371</ele>
        <time>2014-12-22T12:29:44Z</time>
      </trkpt>
      <trkpt lat="45.875" lon="7.182">
        <ele>2113.4048346118</ele>
        <time>2014-12-22T12:30:06Z</time>
      </trkpt>
      <trkpt lat="45.87482" lon="7.18204">
        <ele>2115.90500096</ele>
        <time>2014-12-22T12:30:27Z</time>
      </trkpt>
      <trkpt lat="45.87461" lon="7.18202">
        <ele>2120.00600064</ele>
        <time>2014-12-22T12:30:48Z</time>
      </trkpt>
      <trkpt lat="45.87437" lon="7.18197">
        <ele>2124.368</ele>
        <time>2014-12-22T12:31:19Z</time>
      </trkpt>
      <trkpt lat="45.87427" lon="7.18197">
        <ele>2129.4671977525</ele>
        <time>2014-12-22T12:31:33Z</time>
      </trkpt>
      <trkpt lat="45.87415" lon="7.18193">
        <ele>2132.5745536856</ele>
        <time>2014-12-22T12:31:56Z</time>
      </trkpt>
      <trkpt lat="45.87395" lon="7.18195">
        <ele>2137.0920921806</ele>
        <time>2014-12-22T12:32:19Z</time>
      </trkpt>
      <trkpt lat="45.8738" lon="7.18196">
        <ele>2139.81200128</ele>
        <time>2014-12-22T12:32:37Z</time>
      </trkpt>
      <trkpt lat="45.87349" lon="7.18193">
        <ele>2143.65800192</ele>
        <time>2014-12-22T12:33:07Z</time>
      </trkpt>
      <trkpt lat="45.87328" lon="7.18188">
        <ele>2147.0920921806</ele>
        <time>2014-12-22T12:33:29Z</time>
      </trkpt>
      <trkpt lat="45.87323" lon="7.18184">
        <ele>2147.6926933583</ele>
        <time>2014-12-22T12:33:35Z</time>
      </trkpt>
      <trkpt lat="45.87301" lon="7.18161">
        <ele>2151.81200128</ele>
        <time>2014-12-22T12:34:02Z</time>
      </trkpt>
      <trkpt lat="45.8728" lon="7.18151">
        <ele>2155.1829027008</ele>
        <time>2014-12-22T12:34:29Z</time>
      </trkpt>
      <trkpt lat="45.87261" lon="7.18143">
        <ele>2159.090089536</ele>
        <time>2014-12-22T12:34:49Z</time>
      </trkpt>
      <trkpt lat="45.87259" lon="7.18143">
        <ele>2159.3903901249</ele>
        <time>2014-12-22T12:34:52Z</time>
      </trkpt>
      <trkpt lat="45.87211" lon="7.18113">
        <ele>2161.19699968</ele>
        <time>2014-12-22T12:35:36Z</time>
      </trkpt>
      <trkpt lat="45.87207" lon="7.18107">
        <ele>2160.79699968</ele>
        <time>2014-12-22T12:37:00Z</time>
      </trkpt>
      <trkpt lat="45.87187" lon="7.18081">
        <ele>2163.20600064</ele>
        <time>2014-12-22T12:37:44Z</time>
      </trkpt>
      <trkpt lat="45.87186" lon="7.18079">
        <ele>2163.40600064</ele>
        <time>2014-12-22T12:37:45Z</time>
      </trkpt>
      <trkpt lat="45.87168" lon="7.18055">
        <ele>2167.10100096</ele>
        <time>2014-12-22T12:38:09Z</time>
      </trkpt>
      <trkpt lat="45.87148" lon="7.18029">
        <ele>2171.8028029336</ele>
        <time>2014-12-22T12:38:36Z</time>
      </trkpt>
      <trkpt lat="45.87147" lon="7.18027">
        <ele>2172.00600064</ele>
        <time>2014-12-22T12:38:38Z</time>
      </trkpt>
      <trkpt lat="45.87129" lon="7.18006">
        <ele>2176.6056058672</ele>
        <time>2014-12-22T12:39:06Z</time>
      </trkpt>
      <trkpt lat="45.87118" lon="7.17984">
        <ele>2179.7027027373</ele>
        <time>2014-12-22T12:39:25Z</time>
      </trkpt>
      <trkpt lat="45.87102" lon="7.17963">
        <ele>2184.60600064</ele>
        <time>2014-12-22T12:39:51Z</time>
      </trkpt>
      <trkpt lat="45.87092" lon="7.17949">
        <ele>2187.81000192</ele>
        <time>2014-12-22T12:40:07Z</time>
      </trkpt>
      <trkpt lat="45.87076" lon="7.17931">
        <ele>2191.20600064</ele>
        <time>2014-12-22T12:40:29Z</time>
      </trkpt>
      <trkpt lat="45.87068" lon="7.17918">
        <ele>2194.4557114961</ele>
        <time>2014-12-22T12:40:43Z</time>
      </trkpt>
      <trkpt lat="45.87056" lon="7.17901">
        <ele>2198.00600064</ele>
        <time>2014-12-22T12:41:03Z</time>
      </trkpt>
      <trkpt lat="45.87038" lon="7.17873">
        <ele>2202.024</ele>
        <time>2014-12-22T12:41:34Z</time>
      </trkpt>
      <trkpt lat="45.87025" lon="7.17842">
        <ele>2205.9860979587</ele>
        <time>2014-12-22T12:41:58Z</time>
      </trkpt>
      <trkpt lat="45.87022" lon="7.17836">
        <ele>2207.00600064</ele>
        <time>2014-12-22T12:43:38Z</time>
      </trkpt>
      <trkpt lat="45.87013" lon="7.17811">
        <ele>2210.57497658</ele>
        <time>2014-12-22T12:44:06Z</time>
      </trkpt>
      <trkpt lat="45.87006" lon="7.17798">
        <ele>2213.17999872</ele>
        <time>2014-12-22T12:44:19Z</time>
      </trkpt>
      <trkpt lat="45.86995" lon="7.17767">
        <ele>2218.37200128</ele>
        <time>2014-12-22T12:44:45Z</time>
      </trkpt>
      <trkpt lat="45.86991" lon="7.17754">
        <ele>2221.74400256</ele>
        <time>2014-12-22T12:44:55Z</time>
      </trkpt>
      <trkpt lat="45.86986" lon="7.17731">
        <ele>2223</ele>
        <time>2014-12-22T12:45:13Z</time>
      </trkpt>
      <trkpt lat="45.86983" lon="7.17724">
        <ele>2223.1829027008</ele>
        <time>2014-12-22T12:45:19Z</time>
      </trkpt>
      <trkpt lat="45.86975" lon="7.17692">
        <ele>2226.5760337002</ele>
        <time>2014-12-22T12:45:41Z</time>
      </trkpt>
      <trkpt lat="45.86964" lon="7.17657">
        <ele>2230.808</ele>
        <time>2014-12-22T12:46:07Z</time>
      </trkpt>
      <trkpt lat="45.86963" lon="7.17653">
        <ele>2231</ele>
        <time>2014-12-22T12:46:10Z</time>
      </trkpt>
      <trkpt lat="45.86945" lon="7.17599">
        <ele>2233.57200128</ele>
        <time>2014-12-22T12:46:51Z</time>
      </trkpt>
      <trkpt lat="45.86926" lon="7.1755">
        <ele>2238</ele>
        <time>2014-12-22T12:47:28Z</time>
      </trkpt>
      <trkpt lat="45.86924" lon="7.17543">
        <ele>2238</ele>
        <time>2014-12-22T12:47:32Z</time>
      </trkpt>
      <trkpt lat="45.869" lon="7.17494">
        <ele>2240.1908549922</ele>
        <time>2014-12-22T12:48:10Z</time>
      </trkpt>
      <trkpt lat="45.86886" lon="7.17468">
        <ele>2244.7561960773</ele>
        <time>2014-12-22T12:48:37Z</time>
      </trkpt>
      <trkpt lat="45.86876" lon="7.17451">
        <ele>2249.5150016</ele>
        <time>2014-12-22T12:48:55Z</time>
      </trkpt>
      <trkpt lat="45.86861" lon="7.17436">
        <ele>2253.7805379049</ele>
        <time>2014-12-22T12:49:22Z</time>
      </trkpt>
      <trkpt lat="45.86853" lon="7.17428">
        <ele>2257.18600064</ele>
        <time>2014-12-22T12:49:40Z</time>
      </trkpt>
      <trkpt lat="45.8684" lon="7.17415">
        <ele>2262.01200128</ele>
        <time>2014-12-22T12:50:08Z</time>
      </trkpt>
      <trkpt lat="45.86839" lon="7.17415">
        <ele>2262.20600064</ele>
        <time>2014-12-22T12:50:09Z</time>
      </trkpt>
      <trkpt lat="45.86829" lon="7.17399">
        <ele>2265.9721959175</ele>
        <time>2014-12-22T12:50:28Z</time>
      </trkpt>
      <trkpt lat="45.86824" lon="7.17388">
        <ele>2268.984</ele>
        <time>2014-12-22T12:50:43Z</time>
      </trkpt>
      <trkpt lat="45.86826" lon="7.17377">
        <ele>2273.10900096</ele>
        <time>2014-12-22T12:51:05Z</time>
      </trkpt>
      <trkpt lat="45.86826" lon="7.17371">
        <ele>2274.4031782631</ele>
        <time>2014-12-22T12:51:10Z</time>
      </trkpt>
      <trkpt lat="45.86833" lon="7.17345">
        <ele>2278.284</ele>
        <time>2014-12-22T12:51:31Z</time>
      </trkpt>
      <trkpt lat="45.86841" lon="7.17331">
        <ele>2279.68600064</ele>
        <time>2014-12-22T12:51:45Z</time>
      </trkpt>
      <trkpt lat="45.86854" lon="7.1731">
        <ele>2283.60600064</ele>
        <time>2014-12-22T12:52:11Z</time>
      </trkpt>
      <trkpt lat="45.86862" lon="7.17301">
        <ele>2287.81200128</ele>
        <time>2014-12-22T12:52:25Z</time>
      </trkpt>
      <trkpt lat="45.86881" lon="7.17305">
        <ele>2294.19300096</ele>
        <time>2014-12-22T12:53:00Z</time>
      </trkpt>
      <trkpt lat="45.86883" lon="7.17304">
        <ele>2294.39500032</ele>
        <time>2014-12-22T12:53:02Z</time>
      </trkpt>
      <trkpt lat="45.86887" lon="7.1727">
        <ele>2297.48600064</ele>
        <time>2014-12-22T12:53:33Z</time>
      </trkpt>
      <trkpt lat="45.86887" lon="7.17257">
        <ele>2299.5814892031</ele>
        <time>2014-12-22T12:53:46Z</time>
      </trkpt>
      <trkpt lat="45.86889" lon="7.17228">
        <ele>2301</ele>
        <time>2014-12-22T12:54:07Z</time>
      </trkpt>
      <trkpt lat="45.86902" lon="7.17205">
        <ele>2303.78600064</ele>
        <time>2014-12-22T12:54:36Z</time>
      </trkpt>
      <trkpt lat="45.86922" lon="7.17204">
        <ele>2308.584</ele>
        <time>2014-12-22T12:55:11Z</time>
      </trkpt>
      <trkpt lat="45.86913" lon="7.17191">
        <ele>2311.5965450407</ele>
        <time>2014-12-22T12:55:34Z</time>
      </trkpt>
      <trkpt lat="45.8691" lon="7.17184">
        <ele>2312.81000192</ele>
        <time>2014-12-22T12:55:42Z</time>
      </trkpt>
      <trkpt lat="45.86904" lon="7.17152">
        <ele>2316</ele>
        <time>2014-12-22T12:56:06Z</time>
      </trkpt>
      <trkpt lat="45.86895" lon="7.17118">
        <ele>2319.1899615748</ele>
        <time>2014-12-22T12:56:30Z</time>
      </trkpt>
      <trkpt lat="45.86889" lon="7.17099">
        <ele>2321.0148960429</ele>
        <time>2014-12-22T12:56:49Z</time>
      </trkpt>
      <trkpt lat="45.86892" lon="7.17075">
        <ele>2322</ele>
        <time>2014-12-22T12:57:02Z</time>
      </trkpt>
      <trkpt lat="45.86911" lon="7.17036">
        <ele>2322</ele>
        <time>2014-12-22T12:57:32Z</time>
      </trkpt>
      <trkpt lat="45.86937" lon="7.16972">
        <ele>2320.3118165444</ele>
        <time>2014-12-22T12:58:05Z</time>
      </trkpt>
      <trkpt lat="45.86938" lon="7.16969">
        <ele>2320.21251171</ele>
        <time>2014-12-22T12:58:06Z</time>
      </trkpt>
      <trkpt lat="45.86947" lon="7.16941">
        <ele>2317</ele>
        <time>2014-12-22T12:58:19Z</time>
      </trkpt>
      <trkpt lat="45.86948" lon="7.16938">
        <ele>2317</ele>
        <time>2014-12-22T12:58:20Z</time>
      </trkpt>
      <trkpt lat="45.86955" lon="7.16873">
        <ele>2315.4111213788</ele>
        <time>2014-12-22T12:58:44Z</time>
      </trkpt>
      <trkpt lat="45.86958" lon="7.16856">
        <ele>2314.71399936</ele>
        <time>2014-12-22T12:58:51Z</time>
      </trkpt>
      <trkpt lat="45.86947" lon="7.16797">
        <ele>2311.19699968</ele>
        <time>2014-12-22T12:59:16Z</time>
      </trkpt>
      <trkpt lat="45.86944" lon="7.16781">
        <ele>2311</ele>
        <time>2014-12-22T12:59:23Z</time>
      </trkpt>
      <trkpt lat="45.86938" lon="7.16757">
        <ele>2310.39699968</ele>
        <time>2014-12-22T12:59:34Z</time>
      </trkpt>
      <trkpt lat="45.86926" lon="7.16678">
        <ele>2307.1132068756</ele>
        <time>2014-12-22T13:00:07Z</time>
      </trkpt>
      <trkpt lat="45.86926" lon="7.16676">
        <ele>2307.0139020413</ele>
        <time>2014-12-22T13:00:08Z</time>
      </trkpt>
      <trkpt lat="45.86928" lon="7.16664">
        <ele>2307</ele>
        <time>2014-12-22T13:00:13Z</time>
      </trkpt>
      <trkpt lat="45.86913" lon="7.16594">
        <ele>2306</ele>
        <time>2014-12-22T13:00:48Z</time>
      </trkpt>
      <trkpt lat="45.86895" lon="7.16556">
        <ele>2305</ele>
        <time>2014-12-22T13:01:11Z</time>
      </trkpt>
      <trkpt lat="45.86862" lon="7.16542">
        <ele>2304</ele>
        <time>2014-12-22T13:01:34Z</time>
      </trkpt>
      <trkpt lat="45.86796" lon="7.16526">
        <ele>2302.51399936</ele>
        <time>2014-12-22T13:02:23Z</time>
      </trkpt>
      <trkpt lat="45.86768" lon="7.16515">
        <ele>2304.78600064</ele>
        <time>2014-12-22T13:02:46Z</time>
      </trkpt>
      <trkpt lat="45.8676" lon="7.16507">
        <ele>2305</ele>
        <time>2014-12-22T13:02:52Z</time>
      </trkpt>
      <trkpt lat="45.86717" lon="7.16454">
        <ele>2303.0208524263</ele>
        <time>2014-12-22T13:03:23Z</time>
      </trkpt>
      <trkpt lat="45.86707" lon="7.16396">
        <ele>2297.3861749593</ele>
        <time>2014-12-22T13:03:47Z</time>
      </trkpt>
      <trkpt lat="45.86709" lon="7.16368">
        <ele>2297.3902689524</ele>
        <time>2014-12-22T13:04:02Z</time>
      </trkpt>
      <trkpt lat="45.86734" lon="7.16332">
        <ele>2296</ele>
        <time>2014-12-22T13:04:26Z</time>
      </trkpt>
      <trkpt lat="45.8674" lon="7.16282">
        <ele>2292.38199808</ele>
        <time>2014-12-22T13:04:44Z</time>
      </trkpt>
      <trkpt lat="45.86744" lon="7.16266">
        <ele>2289.69699968</ele>
        <time>2014-12-22T13:04:51Z</time>
      </trkpt>
      <trkpt lat="45.86751" lon="7.16246">
        <ele>2288.7984108684</ele>
        <time>2014-12-22T13:05:00Z</time>
      </trkpt>
      <trkpt lat="45.86761" lon="7.16215">
        <ele>2288</ele>
        <time>2014-12-22T13:05:15Z</time>
      </trkpt>
      <trkpt lat="45.86781" lon="7.16173">
        <ele>2284.6006087805</ele>
        <time>2014-12-22T13:05:36Z</time>
      </trkpt>
      <trkpt lat="45.86798" lon="7.16151">
        <ele>2282.42099712</ele>
        <time>2014-12-22T13:05:50Z</time>
      </trkpt>
      <trkpt lat="45.86831" lon="7.16145">
        <ele>2281.38199808</ele>
        <time>2014-12-22T13:06:09Z</time>
      </trkpt>
      <trkpt lat="45.8684" lon="7.16143">
        <ele>2278.38199808</ele>
        <time>2014-12-22T13:06:14Z</time>
      </trkpt>
      <trkpt lat="45.86856" lon="7.16143">
        <ele>2276</ele>
        <time>2014-12-22T13:06:25Z</time>
      </trkpt>
      <trkpt lat="45.86878" lon="7.16139">
        <ele>2275.1132068756</ele>
        <time>2014-12-22T13:06:37Z</time>
      </trkpt>
      <trkpt lat="45.86879" lon="7.16137">
        <ele>2274.6535723355</ele>
        <time>2014-12-22T13:06:39Z</time>
      </trkpt>
      <trkpt lat="45.86888" lon="7.1612">
        <ele>2271.3786480979</ele>
        <time>2014-12-22T13:06:47Z</time>
      </trkpt>
      <trkpt lat="45.86896" lon="7.16107">
        <ele>2270.29699968</ele>
        <time>2014-12-22T13:06:55Z</time>
      </trkpt>
      <trkpt lat="45.86911" lon="7.16076">
        <ele>2268</ele>
        <time>2014-12-22T13:07:12Z</time>
      </trkpt>
      <trkpt lat="45.86911" lon="7.16074">
        <ele>2268</ele>
        <time>2014-12-22T13:07:13Z</time>
      </trkpt>
      <trkpt lat="45.8695" lon="7.15997">
        <ele>2263.98799872</ele>
        <time>2014-12-22T13:07:48Z</time>
      </trkpt>
      <trkpt lat="45.86967" lon="7.15954">
        <ele>2260.9821232232</ele>
        <time>2014-12-22T13:08:08Z</time>
      </trkpt>
      <trkpt lat="45.86979" lon="7.15912">
        <ele>2258</ele>
        <time>2014-12-22T13:08:28Z</time>
      </trkpt>
      <trkpt lat="45.86981" lon="7.15906">
        <ele>2257.7119831499</ele>
        <time>2014-12-22T13:08:31Z</time>
      </trkpt>
      <trkpt lat="45.87013" lon="7.15866">
        <ele>2254.41399808</ele>
        <time>2014-12-22T13:08:56Z</time>
      </trkpt>
      <trkpt lat="45.87046" lon="7.15802">
        <ele>2250.79399936</ele>
        <time>2014-12-22T13:09:34Z</time>
      </trkpt>
      <trkpt lat="45.87054" lon="7.15764">
        <ele>2248.2092553985</ele>
        <time>2014-12-22T13:09:56Z</time>
      </trkpt>
      <trkpt lat="45.87057" lon="7.15768">
        <ele>2245.90500096</ele>
        <time>2014-12-22T13:11:27Z</time>
      </trkpt>
      <trkpt lat="45.87054" lon="7.15766">
        <ele>2246</ele>
        <time>2014-12-22T13:12:18Z</time>
      </trkpt>
      <trkpt lat="45.87058" lon="7.15766">
        <ele>2248.29699968</ele>
        <time>2014-12-22T13:12:45Z</time>
      </trkpt>
      <trkpt lat="45.87055" lon="7.15764">
        <ele>2249</ele>
        <time>2014-12-22T13:13:14Z</time>
      </trkpt>
      <trkpt lat="45.87043" lon="7.15732">
        <ele>2245.37999616</ele>
        <time>2014-12-22T13:13:27Z</time>
      </trkpt>
      <trkpt lat="45.87024" lon="7.15689">
        <ele>2242.98799872</ele>
        <time>2014-12-22T13:13:48Z</time>
      </trkpt>
      <trkpt lat="45.8698" lon="7.157">
        <ele>2239.40200192</ele>
        <time>2014-12-22T13:14:10Z</time>
      </trkpt>
      <trkpt lat="45.86953" lon="7.15701">
        <ele>2239.79399936</ele>
        <time>2014-12-22T13:14:24Z</time>
      </trkpt>
      <trkpt lat="45.86918" lon="7.15687">
        <ele>2236.6174422573</ele>
        <time>2014-12-22T13:14:42Z</time>
      </trkpt>
      <trkpt lat="45.86915" lon="7.15685">
        <ele>2236.4192261389</ele>
        <time>2014-12-22T13:14:44Z</time>
      </trkpt>
      <trkpt lat="45.86906" lon="7.15622">
        <ele>2231.8143707373</ele>
        <time>2014-12-22T13:15:10Z</time>
      </trkpt>
      <trkpt lat="45.86913" lon="7.156">
        <ele>2230.4148292841</ele>
        <time>2014-12-22T13:15:24Z</time>
      </trkpt>
      <trkpt lat="45.86922" lon="7.15579">
        <ele>2228</ele>
        <time>2014-12-22T13:15:48Z</time>
      </trkpt>
      <trkpt lat="45.86923" lon="7.15577">
        <ele>2228</ele>
        <time>2014-12-22T13:15:49Z</time>
      </trkpt>
      <trkpt lat="45.86934" lon="7.15551">
        <ele>2229.7578759055</ele>
        <time>2014-12-22T13:16:07Z</time>
      </trkpt>
      <trkpt lat="45.86952" lon="7.15522">
        <ele>2232.60600064</ele>
        <time>2014-12-22T13:16:31Z</time>
      </trkpt>
      <trkpt lat="45.86981" lon="7.15463">
        <ele>2235.58600064</ele>
        <time>2014-12-22T13:17:14Z</time>
      </trkpt>
      <trkpt lat="45.86993" lon="7.15438">
        <ele>2239.3802820892</ele>
        <time>2014-12-22T13:17:35Z</time>
      </trkpt>
      <trkpt lat="45.87" lon="7.15424">
        <ele>2242</ele>
        <time>2014-12-22T13:17:51Z</time>
      </trkpt>
      <trkpt lat="45.87009" lon="7.15397">
        <ele>2243.97200128</ele>
        <time>2014-12-22T13:18:13Z</time>
      </trkpt>
      <trkpt lat="45.87015" lon="7.15374">
        <ele>2248</ele>
        <time>2014-12-22T13:18:32Z</time>
      </trkpt>
      <trkpt lat="45.87029" lon="7.15357">
        <ele>2250.60300032</ele>
        <time>2014-12-22T13:18:54Z</time>
      </trkpt>
      <trkpt lat="45.87033" lon="7.15332">
        <ele>2254.60600064</ele>
        <time>2014-12-22T13:19:21Z</time>
      </trkpt>
      <trkpt lat="45.87026" lon="7.15312">
        <ele>2259.20600064</ele>
        <time>2014-12-22T13:19:44Z</time>
      </trkpt>
      <trkpt lat="45.87019" lon="7.15286">
        <ele>2263.10300032</ele>
        <time>2014-12-22T13:20:19Z</time>
      </trkpt>
      <trkpt lat="45.87005" lon="7.15275">
        <ele>2266.58600064</ele>
        <time>2014-12-22T13:20:54Z</time>
      </trkpt>
      <trkpt lat="45.87003" lon="7.15254">
        <ele>2268.98600064</ele>
        <time>2014-12-22T13:21:18Z</time>
      </trkpt>
      <trkpt lat="45.87016" lon="7.15224">
        <ele>2268.31399936</ele>
        <time>2014-12-22T13:21:35Z</time>
      </trkpt>
      <trkpt lat="45.87032" lon="7.15195">
        <ele>2271.384</ele>
        <time>2014-12-22T13:22:05Z</time>
      </trkpt>
      <trkpt lat="45.87036" lon="7.15193">
        <ele>2275.2112117345</ele>
        <time>2014-12-22T13:22:16Z</time>
      </trkpt>
      <trkpt lat="45.87039" lon="7.15192">
        <ele>2276</ele>
        <time>2014-12-22T13:22:21Z</time>
      </trkpt>
      <trkpt lat="45.87048" lon="7.15183">
        <ele>2278.50300032</ele>
        <time>2014-12-22T13:22:43Z</time>
      </trkpt>
      <trkpt lat="45.87062" lon="7.15175">
        <ele>2281.9772061267</ele>
        <time>2014-12-22T13:23:03Z</time>
      </trkpt>
      <trkpt lat="45.87074" lon="7.1518">
        <ele>2286.5586491029</ele>
        <time>2014-12-22T13:23:22Z</time>
      </trkpt>
      <trkpt lat="45.87086" lon="7.15174">
        <ele>2290.5965450407</ele>
        <time>2014-12-22T13:23:44Z</time>
      </trkpt>
      <trkpt lat="45.87093" lon="7.15163">
        <ele>2293.69300096</ele>
        <time>2014-12-22T13:24:05Z</time>
      </trkpt>
      <trkpt lat="45.87102" lon="7.15166">
        <ele>2296.83500672</ele>
        <time>2014-12-22T13:24:12Z</time>
      </trkpt>
      <trkpt lat="45.87106" lon="7.15167">
        <ele>2300.328</ele>
        <time>2014-12-22T13:24:17Z</time>
      </trkpt>
      <trkpt lat="45.87131" lon="7.15164">
        <ele>2305.3930749609</ele>
        <time>2014-12-22T13:24:51Z</time>
      </trkpt>
      <trkpt lat="45.87144" lon="7.15162">
        <ele>2309.192</ele>
        <time>2014-12-22T13:25:10Z</time>
      </trkpt>
      <trkpt lat="45.87158" lon="7.15154">
        <ele>2314.75999744</ele>
        <time>2014-12-22T13:25:35Z</time>
      </trkpt>
      <trkpt lat="45.87166" lon="7.15146">
        <ele>2318.9796760976</ele>
        <time>2014-12-22T13:25:53Z</time>
      </trkpt>
      <trkpt lat="45.87168" lon="7.15137">
        <ele>2321.9860979587</ele>
        <time>2014-12-22T13:26:08Z</time>
      </trkpt>
      <trkpt lat="45.87176" lon="7.15133">
        <ele>2327.21200128</ele>
        <time>2014-12-22T13:26:26Z</time>
      </trkpt>
      <trkpt lat="45.87182" lon="7.1513">
        <ele>2328</ele>
        <time>2014-12-22T13:26:43Z</time>
      </trkpt>
      <trkpt lat="45.87179" lon="7.15119">
        <ele>2332.6976980478</ele>
        <time>2014-12-22T13:27:01Z</time>
      </trkpt>
      <trkpt lat="45.87169" lon="7.15096">
        <ele>2336.40600064</ele>
        <time>2014-12-22T13:27:30Z</time>
      </trkpt>
      <trkpt lat="45.87167" lon="7.15086">
        <ele>2339.00600064</ele>
        <time>2014-12-22T13:27:43Z</time>
      </trkpt>
      <trkpt lat="45.87165" lon="7.15084">
        <ele>2339.20600064</ele>
        <time>2014-12-22T13:27:44Z</time>
      </trkpt>
      <trkpt lat="45.87163" lon="7.15073">
        <ele>2340.70300032</ele>
        <time>2014-12-22T13:27:55Z</time>
      </trkpt>
      <trkpt lat="45.87163" lon="7.15071">
        <ele>2340.90500096</ele>
        <time>2014-12-22T13:27:57Z</time>
      </trkpt>
      <trkpt lat="45.87168" lon="7.15031">
        <ele>2345.60600064</ele>
        <time>2014-12-22T13:28:36Z</time>
      </trkpt>
      <trkpt lat="45.87161" lon="7.15011">
        <ele>2348.80300032</ele>
        <time>2014-12-22T13:28:56Z</time>
      </trkpt>
      <trkpt lat="45.87162" lon="7.15004">
        <ele>2352.5150016</ele>
        <time>2014-12-22T13:29:05Z</time>
      </trkpt>
      <trkpt lat="45.87163" lon="7.14998">
        <ele>2354.40600064</ele>
        <time>2014-12-22T13:29:10Z</time>
      </trkpt>
      <trkpt lat="45.87167" lon="7.14969">
        <ele>2358.1841843612</ele>
        <time>2014-12-22T13:29:39Z</time>
      </trkpt>
      <trkpt lat="45.87168" lon="7.14939">
        <ele>2363.1499531599</ele>
        <time>2014-12-22T13:30:06Z</time>
      </trkpt>
      <trkpt lat="45.87172" lon="7.14936">
        <ele>2364.384</ele>
        <time>2014-12-22T13:30:12Z</time>
      </trkpt>
      <trkpt lat="45.8719" lon="7.14937">
        <ele>2368.384</ele>
        <time>2014-12-22T13:30:40Z</time>
      </trkpt>
      <trkpt lat="45.87189" lon="7.14937">
        <ele>2371.584</ele>
        <time>2014-12-22T13:30:56Z</time>
      </trkpt>
      <trkpt lat="45.87191" lon="7.14937">
        <ele>2371.59399936</ele>
        <time>2014-12-22T13:31:12Z</time>
      </trkpt>
      <trkpt lat="45.87212" lon="7.14926">
        <ele>2375.00600064</ele>
        <time>2014-12-22T13:31:43Z</time>
      </trkpt>
      <trkpt lat="45.87216" lon="7.14917">
        <ele>2379.17200384</ele>
        <time>2014-12-22T13:31:56Z</time>
      </trkpt>
      <trkpt lat="45.87223" lon="7.14904">
        <ele>2381.50300032</ele>
        <time>2014-12-22T13:32:13Z</time>
      </trkpt>
      <trkpt lat="45.87224" lon="7.1489">
        <ele>2382.70300032</ele>
        <time>2014-12-22T13:32:25Z</time>
      </trkpt>
      <trkpt lat="45.87227" lon="7.14879">
        <ele>2387.92100224</ele>
        <time>2014-12-22T13:32:35Z</time>
      </trkpt>
      <trkpt lat="45.87233" lon="7.14861">
        <ele>2389</ele>
        <time>2014-12-22T13:33:00Z</time>
      </trkpt>
      <trkpt lat="45.87238" lon="7.14838">
        <ele>2392.20600064</ele>
        <time>2014-12-22T13:33:24Z</time>
      </trkpt>
      <trkpt lat="45.8724" lon="7.14818">
        <ele>2400.256</ele>
        <time>2014-12-22T13:33:44Z</time>
      </trkpt>
      <trkpt lat="45.8724" lon="7.14814">
        <ele>2403.856</ele>
        <time>2014-12-22T13:33:48Z</time>
      </trkpt>
      <trkpt lat="45.8724" lon="7.14812">
        <ele>2403.4808817829</ele>
        <time>2014-12-22T13:33:49Z</time>
      </trkpt>
      <trkpt lat="45.87241" lon="7.14807">
        <ele>2399.8591537325</ele>
        <time>2014-12-22T13:33:55Z</time>
      </trkpt>
      <trkpt lat="45.87243" lon="7.14792">
        <ele>2397.1133195154</ele>
        <time>2014-12-22T13:34:07Z</time>
      </trkpt>
      <trkpt lat="45.87261" lon="7.14746">
        <ele>2403.1189574194</ele>
        <time>2014-12-22T13:34:50Z</time>
      </trkpt>
      <trkpt lat="45.87266" lon="7.14732">
        <ele>2409.1778239254</ele>
        <time>2014-12-22T13:35:02Z</time>
      </trkpt>
      <trkpt lat="45.87267" lon="7.14729">
        <ele>2410.0769239622</ele>
        <time>2014-12-22T13:35:05Z</time>
      </trkpt>
      <trkpt lat="45.87276" lon="7.14713">
        <ele>2408</ele>
        <time>2014-12-22T13:35:24Z</time>
      </trkpt>
      <trkpt lat="45.87283" lon="7.14693">
        <ele>2411.40600064</ele>
        <time>2014-12-22T13:35:45Z</time>
      </trkpt>
      <trkpt lat="45.87287" lon="7.14662">
        <ele>2414.8063565263</ele>
        <time>2014-12-22T13:36:12Z</time>
      </trkpt>
      <trkpt lat="45.87284" lon="7.14631">
        <ele>2420.2035758638</ele>
        <time>2014-12-22T13:36:41Z</time>
      </trkpt>
      <trkpt lat="45.87282" lon="7.14596">
        <ele>2425.17900288</ele>
        <time>2014-12-22T13:37:12Z</time>
      </trkpt>
      <trkpt lat="45.87283" lon="7.14578">
        <ele>2425.99399936</ele>
        <time>2014-12-22T13:37:28Z</time>
      </trkpt>
      <trkpt lat="45.87285" lon="7.1453">
        <ele>2429.5134866604</ele>
        <time>2014-12-22T13:38:11Z</time>
      </trkpt>
      <trkpt lat="45.87285" lon="7.14519">
        <ele>2433</ele>
        <time>2014-12-22T13:38:19Z</time>
      </trkpt>
      <trkpt lat="45.87289" lon="7.14485">
        <ele>2436</ele>
        <time>2014-12-22T13:38:48Z</time>
      </trkpt>
      <trkpt lat="45.87289" lon="7.14483">
        <ele>2436</ele>
        <time>2014-12-22T13:38:49Z</time>
      </trkpt>
      <trkpt lat="45.87285" lon="7.1445">
        <ele>2439</ele>
        <time>2014-12-22T13:39:20Z</time>
      </trkpt>
      <trkpt lat="45.87285" lon="7.14449">
        <ele>2439</ele>
        <time>2014-12-22T13:39:22Z</time>
      </trkpt>
      <trkpt lat="45.8728" lon="7.14414">
        <ele>2443.60300032</ele>
        <time>2014-12-22T13:39:54Z</time>
      </trkpt>
      <trkpt lat="45.87277" lon="7.14394">
        <ele>2446.60300032</ele>
        <time>2014-12-22T13:40:14Z</time>
      </trkpt>
      <trkpt lat="45.8727" lon="7.1437">
        <ele>2452.1021015596</ele>
        <time>2014-12-22T13:40:49Z</time>
      </trkpt>
      <trkpt lat="45.8727" lon="7.14368">
        <ele>2452.2022017559</ele>
        <time>2014-12-22T13:40:50Z</time>
      </trkpt>
      <trkpt lat="45.87266" lon="7.14345">
        <ele>2457</ele>
        <time>2014-12-22T13:41:10Z</time>
      </trkpt>
      <trkpt lat="45.87267" lon="7.14333">
        <ele>2461.01200128</ele>
        <time>2014-12-22T13:41:38Z</time>
      </trkpt>
      <trkpt lat="45.87249" lon="7.14307">
        <ele>2464.3008939659</ele>
        <time>2014-12-22T13:42:11Z</time>
      </trkpt>
      <trkpt lat="45.8721" lon="7.14256">
        <ele>2465.48600064</ele>
        <time>2014-12-22T13:43:03Z</time>
      </trkpt>
      <trkpt lat="45.87206" lon="7.14246">
        <ele>2467.168</ele>
        <time>2014-12-22T13:43:14Z</time>
      </trkpt>
      <trkpt lat="45.87206" lon="7.14244">
        <ele>2467.368</ele>
        <time>2014-12-22T13:43:15Z</time>
      </trkpt>
      <trkpt lat="45.87194" lon="7.14211">
        <ele>2469</ele>
        <time>2014-12-22T13:43:43Z</time>
      </trkpt>
      <trkpt lat="45.87189" lon="7.14189">
        <ele>2472.1771783084</ele>
        <time>2014-12-22T13:44:02Z</time>
      </trkpt>
      <trkpt lat="45.87189" lon="7.14188">
        <ele>2472.8078076231</ele>
        <time>2014-12-22T13:44:04Z</time>
      </trkpt>
      <trkpt lat="45.87189" lon="7.14186">
        <ele>2473.108108212</ele>
        <time>2014-12-22T13:44:05Z</time>
      </trkpt>
      <trkpt lat="45.87187" lon="7.14162">
        <ele>2476.5814892031</ele>
        <time>2014-12-22T13:44:26Z</time>
      </trkpt>
      <trkpt lat="45.8718" lon="7.14121">
        <ele>2480.1769391185</ele>
        <time>2014-12-22T13:45:04Z</time>
      </trkpt>
      <trkpt lat="45.87181" lon="7.14095">
        <ele>2486.54400256</ele>
        <time>2014-12-22T13:45:27Z</time>
      </trkpt>
      <trkpt lat="45.87181" lon="7.14061">
        <ele>2489.20300032</ele>
        <time>2014-12-22T13:46:00Z</time>
      </trkpt>
      <trkpt lat="45.87184" lon="7.14038">
        <ele>2493.17900288</ele>
        <time>2014-12-22T13:46:22Z</time>
      </trkpt>
      <trkpt lat="45.87184" lon="7.14028">
        <ele>2496.80900096</ele>
        <time>2014-12-22T13:46:34Z</time>
      </trkpt>
      <trkpt lat="45.87183" lon="7.14025">
        <ele>2498.0079443867</ele>
        <time>2014-12-22T13:46:38Z</time>
      </trkpt>
      <trkpt lat="45.87174" lon="7.13994">
        <ele>2502.7805379049</ele>
        <time>2014-12-22T13:47:12Z</time>
      </trkpt>
      <trkpt lat="45.87171" lon="7.13982">
        <ele>2504.9073527194</ele>
        <time>2014-12-22T13:47:27Z</time>
      </trkpt>
      <trkpt lat="45.8717" lon="7.13964">
        <ele>2511.1916592837</ele>
        <time>2014-12-22T13:47:50Z</time>
      </trkpt>
      <trkpt lat="45.87181" lon="7.13944">
        <ele>2515.008</ele>
        <time>2014-12-22T13:48:18Z</time>
      </trkpt>
      <trkpt lat="45.87187" lon="7.13922">
        <ele>2519.60600064</ele>
        <time>2014-12-22T13:48:46Z</time>
      </trkpt>
      <trkpt lat="45.87185" lon="7.13907">
        <ele>2524</ele>
        <time>2014-12-22T13:49:13Z</time>
      </trkpt>
      <trkpt lat="45.87185" lon="7.13903">
        <ele>2524.20600064</ele>
        <time>2014-12-22T13:49:19Z</time>
      </trkpt>
      <trkpt lat="45.87178" lon="7.13889">
        <ele>2530.5450048</ele>
        <time>2014-12-22T13:49:37Z</time>
      </trkpt>
      <trkpt lat="45.87176" lon="7.1388">
        <ele>2532</ele>
        <time>2014-12-22T13:50:02Z</time>
      </trkpt>
      <trkpt lat="45.87167" lon="7.13867">
        <ele>2537.10300032</ele>
        <time>2014-12-22T13:50:19Z</time>
      </trkpt>
      <trkpt lat="45.87167" lon="7.13865">
        <ele>2537.30300032</ele>
        <time>2014-12-22T13:50:21Z</time>
      </trkpt>
      <trkpt lat="45.87158" lon="7.13854">
        <ele>2540.3923927695</ele>
        <time>2014-12-22T13:50:42Z</time>
      </trkpt>
      <trkpt lat="45.87146" lon="7.13838">
        <ele>2544.574977851</ele>
        <time>2014-12-22T13:51:10Z</time>
      </trkpt>
      <trkpt lat="45.87144" lon="7.13836">
        <ele>2545.7666358636</ele>
        <time>2014-12-22T13:51:14Z</time>
      </trkpt>
      <trkpt lat="45.87143" lon="7.13826">
        <ele>2547</ele>
        <time>2014-12-22T13:51:25Z</time>
      </trkpt>
      <trkpt lat="45.87146" lon="7.13806">
        <ele>2550.40900096</ele>
        <time>2014-12-22T13:51:52Z</time>
      </trkpt>
      <trkpt lat="45.87148" lon="7.1378">
        <ele>2553.81800192</ele>
        <time>2014-12-22T13:52:17Z</time>
      </trkpt>
      <trkpt lat="45.87149" lon="7.13779">
        <ele>2554.032</ele>
        <time>2014-12-22T13:52:19Z</time>
      </trkpt>
      <trkpt lat="45.87152" lon="7.13765">
        <ele>2558.72400384</ele>
        <time>2014-12-22T13:52:37Z</time>
      </trkpt>
      <trkpt lat="45.87153" lon="7.13748">
        <ele>2564.01200128</ele>
        <time>2014-12-22T13:53:03Z</time>
      </trkpt>
      <trkpt lat="45.87139" lon="7.13737">
        <ele>2567.9860979587</ele>
        <time>2014-12-22T13:53:28Z</time>
      </trkpt>
      <trkpt lat="45.8714" lon="7.13734">
        <ele>2569.50900096</ele>
        <time>2014-12-22T13:53:43Z</time>
      </trkpt>
      <trkpt lat="45.87139" lon="7.13733">
        <ele>2569.80900096</ele>
        <time>2014-12-22T13:53:44Z</time>
      </trkpt>
      <trkpt lat="45.87134" lon="7.1373">
        <ele>2572.3833185674</ele>
        <time>2014-12-22T13:54:00Z</time>
      </trkpt>
      <trkpt lat="45.87135" lon="7.1373">
        <ele>2572.5819282361</ele>
        <time>2014-12-22T13:54:01Z</time>
      </trkpt>
      <trkpt lat="45.87136" lon="7.1372">
        <ele>2575.60100096</ele>
        <time>2014-12-22T13:54:24Z</time>
      </trkpt>
      <trkpt lat="45.87147" lon="7.13701">
        <ele>2579.39300096</ele>
        <time>2014-12-22T13:55:02Z</time>
      </trkpt>
      <trkpt lat="45.87151" lon="7.13695">
        <ele>2583.57200384</ele>
        <time>2014-12-22T13:55:17Z</time>
      </trkpt>
      <trkpt lat="45.87136" lon="7.13688">
        <ele>2586.21400064</ele>
        <time>2014-12-22T13:55:59Z</time>
      </trkpt>
      <trkpt lat="45.87133" lon="7.1369">
        <ele>2587.00600064</ele>
        <time>2014-12-22T13:56:03Z</time>
      </trkpt>
      <trkpt lat="45.87125" lon="7.13689">
        <ele>2590.1021015596</ele>
        <time>2014-12-22T13:56:19Z</time>
      </trkpt>
      <trkpt lat="45.87118" lon="7.13688">
        <ele>2594.224</ele>
        <time>2014-12-22T13:56:42Z</time>
      </trkpt>
      <trkpt lat="45.87122" lon="7.13677">
        <ele>2595.408</ele>
        <time>2014-12-22T13:57:12Z</time>
      </trkpt>
      <trkpt lat="45.87113" lon="7.13673">
        <ele>2600.72700288</ele>
        <time>2014-12-22T13:57:37Z</time>
      </trkpt>
      <trkpt lat="45.87112" lon="7.13673">
        <ele>2601</ele>
        <time>2014-12-22T13:57:39Z</time>
      </trkpt>
      <trkpt lat="45.87088" lon="7.13662">
        <ele>2605.6047673947</ele>
        <time>2014-12-22T13:58:20Z</time>
      </trkpt>
      <trkpt lat="45.87087" lon="7.1366">
        <ele>2608.7774436342</ele>
        <time>2014-12-22T13:58:32Z</time>
      </trkpt>
      <trkpt lat="45.87083" lon="7.13653">
        <ele>2607.38499712</ele>
        <time>2014-12-22T13:58:50Z</time>
      </trkpt>
      <trkpt lat="45.87076" lon="7.1365">
        <ele>2605</ele>
        <time>2014-12-22T14:00:53Z</time>
      </trkpt>
      <trkpt lat="45.8708" lon="7.13648">
        <ele>2608.20500096</ele>
        <time>2014-12-22T14:01:50Z</time>
      </trkpt>
      <trkpt lat="45.8708" lon="7.13649">
        <ele>2604.1828160485</ele>
        <time>2014-12-22T14:02:42Z</time>
      </trkpt>
      <trkpt lat="45.8708" lon="7.13648">
        <ele>2604</ele>
        <time>2014-12-22T14:03:03Z</time>
      </trkpt>
      <trkpt lat="45.8707" lon="7.1363">
        <ele>2607.46000384</ele>
        <time>2014-12-22T14:03:23Z</time>
      </trkpt>
      <trkpt lat="45.87069" lon="7.13626">
        <ele>2610.45400576</ele>
        <time>2014-12-22T14:03:27Z</time>
      </trkpt>
      <trkpt lat="45.87069" lon="7.13619">
        <ele>2611.90900096</ele>
        <time>2014-12-22T14:03:31Z</time>
      </trkpt>
      <trkpt lat="45.8706" lon="7.13607">
        <ele>2617.0150016</ele>
        <time>2014-12-22T14:03:54Z</time>
      </trkpt>
      <trkpt lat="45.87049" lon="7.13601">
        <ele>2620.10300032</ele>
        <time>2014-12-22T14:04:19Z</time>
      </trkpt>
      <trkpt lat="45.87039" lon="7.13596">
        <ele>2623.30900096</ele>
        <time>2014-12-22T14:04:39Z</time>
      </trkpt>
      <trkpt lat="45.87037" lon="7.13595">
        <ele>2623.60900096</ele>
        <time>2014-12-22T14:04:40Z</time>
      </trkpt>
      <trkpt lat="45.87028" lon="7.13579">
        <ele>2627</ele>
        <time>2014-12-22T14:05:05Z</time>
      </trkpt>
      <trkpt lat="45.87014" lon="7.1356">
        <ele>2630.40600064</ele>
        <time>2014-12-22T14:05:30Z</time>
      </trkpt>
      <trkpt lat="45.86993" lon="7.1354">
        <ele>2635.60300032</ele>
        <time>2014-12-22T14:06:04Z</time>
      </trkpt>
      <trkpt lat="45.86974" lon="7.13539">
        <ele>2639</ele>
        <time>2014-12-22T14:06:35Z</time>
      </trkpt>
      <trkpt lat="45.86962" lon="7.13534">
        <ele>2642.60900096</ele>
        <time>2014-12-22T14:07:00Z</time>
      </trkpt>
      <trkpt lat="45.8695" lon="7.13531">
        <ele>2645.78600192</ele>
        <time>2014-12-22T14:07:12Z</time>
      </trkpt>
      <trkpt lat="45.86937" lon="7.1352">
        <ele>2649.40600064</ele>
        <time>2014-12-22T14:07:40Z</time>
      </trkpt>
      <trkpt lat="45.86921" lon="7.13511">
        <ele>2653.38600192</ele>
        <time>2014-12-22T14:08:05Z</time>
      </trkpt>
      <trkpt lat="45.86916" lon="7.13505">
        <ele>2660.89699968</ele>
        <time>2014-12-22T14:08:19Z</time>
      </trkpt>
      <trkpt lat="45.86915" lon="7.13504">
        <ele>2660.69699968</ele>
        <time>2014-12-22T14:08:21Z</time>
      </trkpt>
      <trkpt lat="45.86902" lon="7.13506">
        <ele>2665.20300032</ele>
        <time>2014-12-22T14:09:00Z</time>
      </trkpt>
      <trkpt lat="45.86891" lon="7.13507">
        <ele>2668.38600192</ele>
        <time>2014-12-22T14:09:20Z</time>
      </trkpt>
      <trkpt lat="45.86885" lon="7.13507">
        <ele>2671.60600064</ele>
        <time>2014-12-22T14:09:36Z</time>
      </trkpt>
      <trkpt lat="45.86869" lon="7.13511">
        <ele>2675.01200128</ele>
        <time>2014-12-22T14:10:08Z</time>
      </trkpt>
      <trkpt lat="45.86864" lon="7.13513">
        <ele>2677.8768777195</ele>
        <time>2014-12-22T14:10:41Z</time>
      </trkpt>
      <trkpt lat="45.86866" lon="7.13497">
        <ele>2681.0119178512</ele>
        <time>2014-12-22T14:10:58Z</time>
      </trkpt>
      <trkpt lat="45.86869" lon="7.13485">
        <ele>2684.37200128</ele>
        <time>2014-12-22T14:11:15Z</time>
      </trkpt>
      <trkpt lat="45.8687" lon="7.13461">
        <ele>2688.30300032</ele>
        <time>2014-12-22T14:11:51Z</time>
      </trkpt>
      <trkpt lat="45.8686" lon="7.13458">
        <ele>2694.0150016</ele>
        <time>2014-12-22T14:12:26Z</time>
      </trkpt>
      <trkpt lat="45.86861" lon="7.13456">
        <ele>2694.29699968</ele>
        <time>2014-12-22T14:12:35Z</time>
      </trkpt>
      <trkpt lat="45.86847" lon="7.13442">
        <ele>2698.30300032</ele>
        <time>2014-12-22T14:13:11Z</time>
      </trkpt>
      <trkpt lat="45.8684" lon="7.13431">
        <ele>2701.38600192</ele>
        <time>2014-12-22T14:13:35Z</time>
      </trkpt>
      <trkpt lat="45.8684" lon="7.13429">
        <ele>2704.50300032</ele>
        <time>2014-12-22T14:13:53Z</time>
      </trkpt>
      <trkpt lat="45.86839" lon="7.13429">
        <ele>2704.70300032</ele>
        <time>2014-12-22T14:13:55Z</time>
      </trkpt>
      <trkpt lat="45.86819" lon="7.13424">
        <ele>2709.40600064</ele>
        <time>2014-12-22T14:14:42Z</time>
      </trkpt>
      <trkpt lat="45.86817" lon="7.13401">
        <ele>2713.60900096</ele>
        <time>2014-12-22T14:15:20Z</time>
      </trkpt>
      <trkpt lat="45.86817" lon="7.13394">
        <ele>2716.90700032</ele>
        <time>2014-12-22T14:15:37Z</time>
      </trkpt>
      <trkpt lat="45.86817" lon="7.13393">
        <ele>2717.20300032</ele>
        <time>2014-12-22T14:15:40Z</time>
      </trkpt>
      <trkpt lat="45.86823" lon="7.13379">
        <ele>2721.8640505503</ele>
        <time>2014-12-22T14:16:21Z</time>
      </trkpt>
      <trkpt lat="45.86827" lon="7.13362">
        <ele>2728.20300032</ele>
        <time>2014-12-22T14:17:00Z</time>
      </trkpt>
      <trkpt lat="45.86818" lon="7.13359">
        <ele>2731.20600064</ele>
        <time>2014-12-22T14:17:34Z</time>
      </trkpt>
      <trkpt lat="45.86816" lon="7.13354">
        <ele>2734.4065933363</ele>
        <time>2014-12-22T14:17:52Z</time>
      </trkpt>
      <trkpt lat="45.86819" lon="7.13345">
        <ele>2738.20300032</ele>
        <time>2014-12-22T14:18:40Z</time>
      </trkpt>
      <trkpt lat="45.86825" lon="7.1334">
        <ele>2741</ele>
        <time>2014-12-22T14:19:02Z</time>
      </trkpt>
      <trkpt lat="45.86824" lon="7.13334">
        <ele>2743.30300032</ele>
        <time>2014-12-22T14:20:31Z</time>
      </trkpt>
      <trkpt lat="45.86832" lon="7.13328">
        <ele>2748.80100096</ele>
        <time>2014-12-22T14:21:16Z</time>
      </trkpt>
      <trkpt lat="45.8683" lon="7.13322">
        <ele>2754</ele>
        <time>2014-12-22T14:22:12Z</time>
      </trkpt>
      <trkpt lat="45.86831" lon="7.13315">
        <ele>2755</ele>
        <time>2014-12-22T14:23:31Z</time>
      </trkpt>
      <trkpt lat="45.8683" lon="7.13315">
        <ele>2755</ele>
        <time>2014-12-22T14:26:24Z</time>
      </trkpt>
      <trkpt lat="45.86828" lon="7.13314">
        <ele>2755</ele>
        <time>2014-12-22T14:30:46Z</time>
      </trkpt>
      <trkpt lat="45.86831" lon="7.13319">
        <ele>2755</ele>
        <time>2014-12-22T14:33:41Z</time>
      </trkpt>
      <trkpt lat="45.8683" lon="7.13336">
        <ele>2751.8397070968</ele>
        <time>2014-12-22T14:33:51Z</time>
      </trkpt>
      <trkpt lat="45.86827" lon="7.13338">
        <ele>2748.6239883871</ele>
        <time>2014-12-22T14:33:54Z</time>
      </trkpt>
      <trkpt lat="45.86825" lon="7.13341">
        <ele>2745.2973754839</ele>
        <time>2014-12-22T14:33:57Z</time>
      </trkpt>
      <trkpt lat="45.8683" lon="7.13345">
        <ele>2740.5803542857</ele>
        <time>2014-12-22T14:34:02Z</time>
      </trkpt>
      <trkpt lat="45.86817" lon="7.13352">
        <ele>2736.9196342857</ele>
        <time>2014-12-22T14:34:06Z</time>
      </trkpt>
      <trkpt lat="45.86815" lon="7.1336">
        <ele>2733.1350709677</ele>
        <time>2014-12-22T14:34:10Z</time>
      </trkpt>
      <trkpt lat="45.86829" lon="7.13365">
        <ele>2729.2036258064</ele>
        <time>2014-12-22T14:34:14Z</time>
      </trkpt>
      <trkpt lat="45.86827" lon="7.13379">
        <ele>2726.1794322581</ele>
        <time>2014-12-22T14:34:17Z</time>
      </trkpt>
      <trkpt lat="45.86833" lon="7.13383">
        <ele>2722.62099584</ele>
        <time>2014-12-22T14:34:20Z</time>
      </trkpt>
      <trkpt lat="45.86841" lon="7.13395">
        <ele>2716.12099584</ele>
        <time>2014-12-22T14:34:25Z</time>
      </trkpt>
      <trkpt lat="45.8685" lon="7.13401">
        <ele>2712.22099584</ele>
        <time>2014-12-22T14:34:28Z</time>
      </trkpt>
      <trkpt lat="45.86849" lon="7.13418">
        <ele>2707.7549952</ele>
        <time>2014-12-22T14:34:31Z</time>
      </trkpt>
      <trkpt lat="45.8685" lon="7.13431">
        <ele>2703.2549952</ele>
        <time>2014-12-22T14:34:34Z</time>
      </trkpt>
      <trkpt lat="45.8686" lon="7.1343">
        <ele>2700.2549952</ele>
        <time>2014-12-22T14:34:36Z</time>
      </trkpt>
      <trkpt lat="45.86867" lon="7.13439">
        <ele>2697.2549952</ele>
        <time>2014-12-22T14:34:38Z</time>
      </trkpt>
      <trkpt lat="45.86862" lon="7.13463">
        <ele>2693.62798848</ele>
        <time>2014-12-22T14:34:41Z</time>
      </trkpt>
      <trkpt lat="45.8687" lon="7.13468">
        <ele>2690.02798848</ele>
        <time>2014-12-22T14:34:44Z</time>
      </trkpt>
      <trkpt lat="45.8688" lon="7.13466">
        <ele>2686.42798848</ele>
        <time>2014-12-22T14:34:47Z</time>
      </trkpt>
      <trkpt lat="45.86888" lon="7.13472">
        <ele>2682.62099584</ele>
        <time>2014-12-22T14:34:50Z</time>
      </trkpt>
      <trkpt lat="45.86889" lon="7.13492">
        <ele>2678.72099584</ele>
        <time>2014-12-22T14:34:53Z</time>
      </trkpt>
      <trkpt lat="45.86896" lon="7.13499">
        <ele>2674.82099584</ele>
        <time>2014-12-22T14:34:56Z</time>
      </trkpt>
      <trkpt lat="45.86906" lon="7.13492">
        <ele>2671.08699648</ele>
        <time>2014-12-22T14:34:59Z</time>
      </trkpt>
      <trkpt lat="45.86922" lon="7.13489">
        <ele>2667.67698944</ele>
        <time>2014-12-22T14:35:02Z</time>
      </trkpt>
      <trkpt lat="45.86922" lon="7.13507">
        <ele>2664.48699648</ele>
        <time>2014-12-22T14:35:05Z</time>
      </trkpt>
      <trkpt lat="45.86928" lon="7.13518">
        <ele>2661.18699648</ele>
        <time>2014-12-22T14:35:08Z</time>
      </trkpt>
      <trkpt lat="45.8694" lon="7.13523">
        <ele>2657.52299392</ele>
        <time>2014-12-22T14:35:10Z</time>
      </trkpt>
      <trkpt lat="45.86951" lon="7.13522">
        <ele>2653.72299392</ele>
        <time>2014-12-22T14:35:12Z</time>
      </trkpt>
      <trkpt lat="45.86956" lon="7.13525">
        <ele>2651.82299392</ele>
        <time>2014-12-22T14:35:13Z</time>
      </trkpt>
      <trkpt lat="45.86961" lon="7.13528">
        <ele>2649.92299392</ele>
        <time>2014-12-22T14:35:14Z</time>
      </trkpt>
      <trkpt lat="45.86972" lon="7.13531">
        <ele>2646.12299392</ele>
        <time>2014-12-22T14:35:16Z</time>
      </trkpt>
      <trkpt lat="45.86976" lon="7.13539">
        <ele>2642.32299392</ele>
        <time>2014-12-22T14:35:18Z</time>
      </trkpt>
      <trkpt lat="45.86989" lon="7.13546">
        <ele>2638.60399616</ele>
        <time>2014-12-22T14:35:21Z</time>
      </trkpt>
      <trkpt lat="45.86995" lon="7.13546">
        <ele>2637.40399616</ele>
        <time>2014-12-22T14:35:22Z</time>
      </trkpt>
      <trkpt lat="45.87" lon="7.13546">
        <ele>2636.20399616</ele>
        <time>2014-12-22T14:35:23Z</time>
      </trkpt>
      <trkpt lat="45.87019" lon="7.13564">
        <ele>2632.60399616</ele>
        <time>2014-12-22T14:35:26Z</time>
      </trkpt>
      <trkpt lat="45.87033" lon="7.13577">
        <ele>2629.3399581137</ele>
        <time>2014-12-22T14:35:29Z</time>
      </trkpt>
      <trkpt lat="45.87039" lon="7.13588">
        <ele>2626.1590456245</ele>
        <time>2014-12-22T14:35:33Z</time>
      </trkpt>
      <trkpt lat="45.87045" lon="7.13609">
        <ele>2622.9781331352</ele>
        <time>2014-12-22T14:35:37Z</time>
      </trkpt>
      <trkpt lat="45.87056" lon="7.13624">
        <ele>2619.9471009642</ele>
        <time>2014-12-22T14:35:40Z</time>
      </trkpt>
      <trkpt lat="45.87069" lon="7.13635">
        <ele>2616.653685687</ele>
        <time>2014-12-22T14:35:43Z</time>
      </trkpt>
      <trkpt lat="45.87073" lon="7.13641">
        <ele>2615.5558805946</ele>
        <time>2014-12-22T14:35:44Z</time>
      </trkpt>
      <trkpt lat="45.87077" lon="7.13647">
        <ele>2614.4580755022</ele>
        <time>2014-12-22T14:35:45Z</time>
      </trkpt>
      <trkpt lat="45.87096" lon="7.13663">
        <ele>2608.96498944</ele>
        <time>2014-12-22T14:35:50Z</time>
      </trkpt>
      <trkpt lat="45.87103" lon="7.13671">
        <ele>2604.67499648</ele>
        <time>2014-12-22T14:35:54Z</time>
      </trkpt>
      <trkpt lat="45.87106" lon="7.1367">
        <ele>2603.57499648</ele>
        <time>2014-12-22T14:35:55Z</time>
      </trkpt>
      <trkpt lat="45.87109" lon="7.13668">
        <ele>2602.47499648</ele>
        <time>2014-12-22T14:35:56Z</time>
      </trkpt>
      <trkpt lat="45.87115" lon="7.13678">
        <ele>2599.0574490323</ele>
        <time>2014-12-22T14:35:59Z</time>
      </trkpt>
      <trkpt lat="45.87125" lon="7.13685">
        <ele>2595.730836129</ele>
        <time>2014-12-22T14:36:02Z</time>
      </trkpt>
      <trkpt lat="45.87126" lon="7.13688">
        <ele>2591.4062464516</ele>
        <time>2014-12-22T14:36:06Z</time>
      </trkpt>
      <trkpt lat="45.87125" lon="7.13702">
        <ele>2587.83799552</ele>
        <time>2014-12-22T14:36:09Z</time>
      </trkpt>
      <trkpt lat="45.87132" lon="7.13707">
        <ele>2583.63799552</ele>
        <time>2014-12-22T14:36:12Z</time>
      </trkpt>
      <trkpt lat="45.87135" lon="7.1372">
        <ele>2579.43799552</ele>
        <time>2014-12-22T14:36:15Z</time>
      </trkpt>
      <trkpt lat="45.87147" lon="7.13727">
        <ele>2575.23799552</ele>
        <time>2014-12-22T14:36:18Z</time>
      </trkpt>
      <trkpt lat="45.87151" lon="7.13729">
        <ele>2573.67199488</ele>
        <time>2014-12-22T14:36:19Z</time>
      </trkpt>
      <trkpt lat="45.87152" lon="7.13738">
        <ele>2570.47199488</ele>
        <time>2014-12-22T14:36:21Z</time>
      </trkpt>
      <trkpt lat="45.87151" lon="7.13751">
        <ele>2567.27199488</ele>
        <time>2014-12-22T14:36:23Z</time>
      </trkpt>
      <trkpt lat="45.87153" lon="7.13762">
        <ele>2564.07199488</ele>
        <time>2014-12-22T14:36:25Z</time>
      </trkpt>
      <trkpt lat="45.87154" lon="7.13774">
        <ele>2560.87199488</ele>
        <time>2014-12-22T14:36:27Z</time>
      </trkpt>
      <trkpt lat="45.87159" lon="7.13795">
        <ele>2557.6799162275</ele>
        <time>2014-12-22T14:36:29Z</time>
      </trkpt>
      <trkpt lat="45.87156" lon="7.13814">
        <ele>2554.4990037382</ele>
        <time>2014-12-22T14:36:31Z</time>
      </trkpt>
      <trkpt lat="45.87156" lon="7.13823">
        <ele>2552.9085474936</ele>
        <time>2014-12-22T14:36:32Z</time>
      </trkpt>
      <trkpt lat="45.87157" lon="7.13831">
        <ele>2551.3180912489</ele>
        <time>2014-12-22T14:36:33Z</time>
      </trkpt>
      <trkpt lat="45.87154" lon="7.13845">
        <ele>2548.1371787596</ele>
        <time>2014-12-22T14:36:35Z</time>
      </trkpt>
      <trkpt lat="45.87157" lon="7.13858">
        <ele>2544.9562662704</ele>
        <time>2014-12-22T14:36:37Z</time>
      </trkpt>
      <trkpt lat="45.87174" lon="7.1386">
        <ele>2541.4949662744</ele>
        <time>2014-12-22T14:36:40Z</time>
      </trkpt>
      <trkpt lat="45.87179" lon="7.13872">
        <ele>2538.3561364064</ele>
        <time>2014-12-22T14:36:44Z</time>
      </trkpt>
      <trkpt lat="45.87189" lon="7.13883">
        <ele>2535.1368184382</ele>
        <time>2014-12-22T14:36:48Z</time>
      </trkpt>
      <trkpt lat="45.87193" lon="7.13902">
        <ele>2529.6146883449</ele>
        <time>2014-12-22T14:36:53Z</time>
      </trkpt>
      <trkpt lat="45.87192" lon="7.13918">
        <ele>2526.3376288103</ele>
        <time>2014-12-22T14:36:56Z</time>
      </trkpt>
      <trkpt lat="45.87191" lon="7.13929">
        <ele>2524.1529224539</ele>
        <time>2014-12-22T14:36:58Z</time>
      </trkpt>
      <trkpt lat="45.87185" lon="7.13945">
        <ele>2519.3917303981</ele>
        <time>2014-12-22T14:37:01Z</time>
      </trkpt>
      <trkpt lat="45.87181" lon="7.13965">
        <ele>2514.7190302418</ele>
        <time>2014-12-22T14:37:04Z</time>
      </trkpt>
      <trkpt lat="45.87177" lon="7.13976">
        <ele>2511.496471298</ele>
        <time>2014-12-22T14:37:06Z</time>
      </trkpt>
      <trkpt lat="45.87177" lon="7.13986">
        <ele>2508.2739123541</ele>
        <time>2014-12-22T14:37:08Z</time>
      </trkpt>
      <trkpt lat="45.87176" lon="7.13998">
        <ele>2505.2549952</ele>
        <time>2014-12-22T14:37:10Z</time>
      </trkpt>
      <trkpt lat="45.87179" lon="7.14007">
        <ele>2502.2549952</ele>
        <time>2014-12-22T14:37:12Z</time>
      </trkpt>
      <trkpt lat="45.87184" lon="7.14021">
        <ele>2499.2549952</ele>
        <time>2014-12-22T14:37:14Z</time>
      </trkpt>
      <trkpt lat="45.87186" lon="7.14041">
        <ele>2496.2549952</ele>
        <time>2014-12-22T14:37:16Z</time>
      </trkpt>
      <trkpt lat="45.87188" lon="7.14053">
        <ele>2494.7549952</ele>
        <time>2014-12-22T14:37:17Z</time>
      </trkpt>
      <trkpt lat="45.87186" lon="7.14078">
        <ele>2491.7549952</ele>
        <time>2014-12-22T14:37:19Z</time>
      </trkpt>
      <trkpt lat="45.87189" lon="7.141">
        <ele>2488.7549952</ele>
        <time>2014-12-22T14:37:21Z</time>
      </trkpt>
      <trkpt lat="45.8719" lon="7.1412">
        <ele>2485.7549952</ele>
        <time>2014-12-22T14:37:23Z</time>
      </trkpt>
      <trkpt lat="45.87192" lon="7.1414">
        <ele>2482.7549952</ele>
        <time>2014-12-22T14:37:25Z</time>
      </trkpt>
      <trkpt lat="45.87191" lon="7.14162">
        <ele>2479.7549952</ele>
        <time>2014-12-22T14:37:27Z</time>
      </trkpt>
      <trkpt lat="45.87198" lon="7.14217">
        <ele>2474.1699968</ele>
        <time>2014-12-22T14:37:32Z</time>
      </trkpt>
      <trkpt lat="45.87207" lon="7.14249">
        <ele>2471.1699968</ele>
        <time>2014-12-22T14:37:35Z</time>
      </trkpt>
      <trkpt lat="45.8722" lon="7.14276">
        <ele>2468.1699968</ele>
        <time>2014-12-22T14:37:38Z</time>
      </trkpt>
      <trkpt lat="45.87225" lon="7.14283">
        <ele>2467.8349895284</ele>
        <time>2014-12-22T14:37:39Z</time>
      </trkpt>
      <trkpt lat="45.87235" lon="7.14295">
        <ele>2467.4373754673</ele>
        <time>2014-12-22T14:37:41Z</time>
      </trkpt>
      <trkpt lat="45.87267" lon="7.14333">
        <ele>2465.285566487</ele>
        <time>2014-12-22T14:38:00Z</time>
      </trkpt>
      <trkpt lat="45.87261" lon="7.14396">
        <ele>2459.58199168</ele>
        <time>2014-12-22T14:38:10Z</time>
      </trkpt>
      <trkpt lat="45.87263" lon="7.14404">
        <ele>2458.28199168</ele>
        <time>2014-12-22T14:38:11Z</time>
      </trkpt>
      <trkpt lat="45.87266" lon="7.14414">
        <ele>2456.98199168</ele>
        <time>2014-12-22T14:38:12Z</time>
      </trkpt>
      <trkpt lat="45.87267" lon="7.14442">
        <ele>2453.08199168</ele>
        <time>2014-12-22T14:38:15Z</time>
      </trkpt>
      <trkpt lat="45.8726" lon="7.14454">
        <ele>2449.18199168</ele>
        <time>2014-12-22T14:38:18Z</time>
      </trkpt>
      <trkpt lat="45.87243" lon="7.14491">
        <ele>2443.5297061929</ele>
        <time>2014-12-22T14:38:26Z</time>
      </trkpt>
      <trkpt lat="45.8724" lon="7.14525">
        <ele>2439.98699648</ele>
        <time>2014-12-22T14:38:30Z</time>
      </trkpt>
      <trkpt lat="45.87235" lon="7.14558">
        <ele>2435.58699648</ele>
        <time>2014-12-22T14:38:34Z</time>
      </trkpt>
      <trkpt lat="45.87235" lon="7.14583">
        <ele>2432.28699648</ele>
        <time>2014-12-22T14:38:37Z</time>
      </trkpt>
      <trkpt lat="45.87232" lon="7.14604">
        <ele>2428.98699648</ele>
        <time>2014-12-22T14:38:40Z</time>
      </trkpt>
      <trkpt lat="45.87227" lon="7.14628">
        <ele>2424.58699648</ele>
        <time>2014-12-22T14:38:44Z</time>
      </trkpt>
      <trkpt lat="45.87221" lon="7.14656">
        <ele>2418.51198464</ele>
        <time>2014-12-22T14:38:49Z</time>
      </trkpt>
      <trkpt lat="45.87217" lon="7.14661">
        <ele>2415.31198464</ele>
        <time>2014-12-22T14:38:51Z</time>
      </trkpt>
      <trkpt lat="45.87221" lon="7.14672">
        <ele>2410.67199488</ele>
        <time>2014-12-22T14:38:54Z</time>
      </trkpt>
      <trkpt lat="45.87219" lon="7.14689">
        <ele>2407.47199488</ele>
        <time>2014-12-22T14:38:56Z</time>
      </trkpt>
      <trkpt lat="45.87218" lon="7.14713">
        <ele>2404.27199488</ele>
        <time>2014-12-22T14:38:58Z</time>
      </trkpt>
      <trkpt lat="45.87222" lon="7.14758">
        <ele>2400.93599744</ele>
        <time>2014-12-22T14:39:02Z</time>
      </trkpt>
      <trkpt lat="45.87224" lon="7.14799">
        <ele>2397.73599744</ele>
        <time>2014-12-22T14:39:06Z</time>
      </trkpt>
      <trkpt lat="45.87225" lon="7.14848">
        <ele>2393.22799616</ele>
        <time>2014-12-22T14:39:15Z</time>
      </trkpt>
      <trkpt lat="45.87221" lon="7.14877">
        <ele>2389.6351862361</ele>
        <time>2014-12-22T14:39:20Z</time>
      </trkpt>
      <trkpt lat="45.87219" lon="7.14882">
        <ele>2388.3429405373</ele>
        <time>2014-12-22T14:39:21Z</time>
      </trkpt>
      <trkpt lat="45.87218" lon="7.14889">
        <ele>2387.0506948385</ele>
        <time>2014-12-22T14:39:22Z</time>
      </trkpt>
      <trkpt lat="45.87206" lon="7.14923">
        <ele>2380.5894663447</ele>
        <time>2014-12-22T14:39:27Z</time>
      </trkpt>
      <trkpt lat="45.87196" lon="7.1494">
        <ele>2377.3203553344</ele>
        <time>2014-12-22T14:39:30Z</time>
      </trkpt>
      <trkpt lat="45.87192" lon="7.14964">
        <ele>2373.7275386683</ele>
        <time>2014-12-22T14:39:34Z</time>
      </trkpt>
      <trkpt lat="45.87187" lon="7.14982">
        <ele>2370.1347220022</ele>
        <time>2014-12-22T14:39:38Z</time>
      </trkpt>
      <trkpt lat="45.87192" lon="7.14996">
        <ele>2367.948948645</ele>
        <time>2014-12-22T14:39:45Z</time>
      </trkpt>
      <trkpt lat="45.87185" lon="7.15003">
        <ele>2363.8156979869</ele>
        <time>2014-12-22T14:39:50Z</time>
      </trkpt>
      <trkpt lat="45.8719" lon="7.15008">
        <ele>2360.3917291091</ele>
        <time>2014-12-22T14:39:52Z</time>
      </trkpt>
      <trkpt lat="45.87189" lon="7.15014">
        <ele>2357.1389696319</ele>
        <time>2014-12-22T14:39:54Z</time>
      </trkpt>
      <trkpt lat="45.87185" lon="7.15021">
        <ele>2353.7150007541</ele>
        <time>2014-12-22T14:39:56Z</time>
      </trkpt>
      <trkpt lat="45.87183" lon="7.15034">
        <ele>2350.2910318763</ele>
        <time>2014-12-22T14:39:58Z</time>
      </trkpt>
      <trkpt lat="45.87176" lon="7.15063">
        <ele>2346.55299712</ele>
        <time>2014-12-22T14:40:02Z</time>
      </trkpt>
      <trkpt lat="45.87151" lon="7.15075">
        <ele>2340.33599744</ele>
        <time>2014-12-22T14:40:09Z</time>
      </trkpt>
      <trkpt lat="45.87148" lon="7.15089">
        <ele>2337.13599744</ele>
        <time>2014-12-22T14:40:13Z</time>
      </trkpt>
      <trkpt lat="45.87152" lon="7.15102">
        <ele>2333.93599744</ele>
        <time>2014-12-22T14:40:17Z</time>
      </trkpt>
      <trkpt lat="45.87154" lon="7.15104">
        <ele>2333.13599744</ele>
        <time>2014-12-22T14:40:18Z</time>
      </trkpt>
      <trkpt lat="45.87156" lon="7.15107">
        <ele>2332.5849984</ele>
        <time>2014-12-22T14:40:19Z</time>
      </trkpt>
      <trkpt lat="45.87158" lon="7.15121">
        <ele>2329.5849984</ele>
        <time>2014-12-22T14:40:25Z</time>
      </trkpt>
      <trkpt lat="45.87155" lon="7.15138">
        <ele>2325.2982236221</ele>
        <time>2014-12-22T14:40:30Z</time>
      </trkpt>
      <trkpt lat="45.8715" lon="7.15142">
        <ele>2322.1978204724</ele>
        <time>2014-12-22T14:40:32Z</time>
      </trkpt>
      <trkpt lat="45.87148" lon="7.15154">
        <ele>2317.7686866142</ele>
        <time>2014-12-22T14:40:35Z</time>
      </trkpt>
      <trkpt lat="45.87142" lon="7.15165">
        <ele>2313.3395527559</ele>
        <time>2014-12-22T14:40:38Z</time>
      </trkpt>
      <trkpt lat="45.87134" lon="7.15163">
        <ele>2310.016257561</ele>
        <time>2014-12-22T14:40:42Z</time>
      </trkpt>
      <trkpt lat="45.8712" lon="7.1517">
        <ele>2306.7642250407</ele>
        <time>2014-12-22T14:40:46Z</time>
      </trkpt>
      <trkpt lat="45.87118" lon="7.15168">
        <ele>2305.9512169106</ele>
        <time>2014-12-22T14:40:47Z</time>
      </trkpt>
      <trkpt lat="45.87116" lon="7.15166">
        <ele>2305.1382087805</ele>
        <time>2014-12-22T14:40:48Z</time>
      </trkpt>
      <trkpt lat="45.87106" lon="7.15177">
        <ele>2301.93599744</ele>
        <time>2014-12-22T14:40:52Z</time>
      </trkpt>
      <trkpt lat="45.87099" lon="7.15179">
        <ele>2298.73599744</ele>
        <time>2014-12-22T14:40:56Z</time>
      </trkpt>
      <trkpt lat="45.87094" lon="7.15178">
        <ele>2295.2767771429</ele>
        <time>2014-12-22T14:41:00Z</time>
      </trkpt>
      <trkpt lat="45.87082" lon="7.15177">
        <ele>2291.7053485714</ele>
        <time>2014-12-22T14:41:04Z</time>
      </trkpt>
      <trkpt lat="45.87053" lon="7.15182">
        <ele>2285.7154246314</ele>
        <time>2014-12-22T14:41:11Z</time>
      </trkpt>
      <trkpt lat="45.87041" lon="7.15182">
        <ele>2282.5891792615</ele>
        <time>2014-12-22T14:41:15Z</time>
      </trkpt>
      <trkpt lat="45.87032" lon="7.15198">
        <ele>2277.7424494116</ele>
        <time>2014-12-22T14:41:20Z</time>
      </trkpt>
      <trkpt lat="45.87018" lon="7.15217">
        <ele>2271.8269603715</ele>
        <time>2014-12-22T14:41:25Z</time>
      </trkpt>
      <trkpt lat="45.87004" lon="7.15238">
        <ele>2268.08300032</ele>
        <time>2014-12-22T14:41:29Z</time>
      </trkpt>
      <trkpt lat="45.8698" lon="7.15265">
        <ele>2269.58300032</ele>
        <time>2014-12-22T14:41:44Z</time>
      </trkpt>
      <trkpt lat="45.86984" lon="7.15275">
        <ele>2269.81699968</ele>
        <time>2014-12-22T14:41:50Z</time>
      </trkpt>
      <trkpt lat="45.8702" lon="7.15305">
        <ele>2265.0699904</ele>
        <time>2014-12-22T14:42:02Z</time>
      </trkpt>
      <trkpt lat="45.87025" lon="7.15325">
        <ele>2261.1699968</ele>
        <time>2014-12-22T14:42:06Z</time>
      </trkpt>
      <trkpt lat="45.87024" lon="7.15346">
        <ele>2258.1699968</ele>
        <time>2014-12-22T14:42:09Z</time>
      </trkpt>
      <trkpt lat="45.8702" lon="7.15366">
        <ele>2255.1699968</ele>
        <time>2014-12-22T14:42:12Z</time>
      </trkpt>
      <trkpt lat="45.87017" lon="7.15374">
        <ele>2254.1699968</ele>
        <time>2014-12-22T14:42:13Z</time>
      </trkpt>
      <trkpt lat="45.87008" lon="7.15395">
        <ele>2251.1699968</ele>
        <time>2014-12-22T14:42:16Z</time>
      </trkpt>
      <trkpt lat="45.87" lon="7.15438">
        <ele>2245.77698944</ele>
        <time>2014-12-22T14:42:21Z</time>
      </trkpt>
      <trkpt lat="45.86991" lon="7.15458">
        <ele>2242.58699648</ele>
        <time>2014-12-22T14:42:24Z</time>
      </trkpt>
      <trkpt lat="45.86979" lon="7.15472">
        <ele>2239.28699648</ele>
        <time>2014-12-22T14:42:27Z</time>
      </trkpt>
      <trkpt lat="45.86955" lon="7.15521">
        <ele>2236.6461222132</ele>
        <time>2014-12-22T14:42:35Z</time>
      </trkpt>
      <trkpt lat="45.86912" lon="7.15608">
        <ele>2231.85999616</ele>
        <time>2014-12-22T14:42:56Z</time>
      </trkpt>
      <trkpt lat="45.8691" lon="7.15606">
        <ele>2231</ele>
        <time>2014-12-22T14:43:55Z</time>
      </trkpt>
      <trkpt lat="45.8691" lon="7.15608">
        <ele>2232</ele>
        <time>2014-12-22T14:47:15Z</time>
      </trkpt>
      <trkpt lat="45.86907" lon="7.15645">
        <ele>2233.78300032</ele>
        <time>2014-12-22T14:48:06Z</time>
      </trkpt>
      <trkpt lat="45.86909" lon="7.15653">
        <ele>2234.3799606349</ele>
        <time>2014-12-22T14:48:12Z</time>
      </trkpt>
      <trkpt lat="45.86914" lon="7.15677">
        <ele>2235.1718295055</ele>
        <time>2014-12-22T14:48:29Z</time>
      </trkpt>
      <trkpt lat="45.86945" lon="7.15695">
        <ele>2238.3902689524</ele>
        <time>2014-12-22T14:49:02Z</time>
      </trkpt>
      <trkpt lat="45.86982" lon="7.15691">
        <ele>2241.88300032</ele>
        <time>2014-12-22T14:49:37Z</time>
      </trkpt>
      <trkpt lat="45.86991" lon="7.15687">
        <ele>2242</ele>
        <time>2014-12-22T14:49:46Z</time>
      </trkpt>
      <trkpt lat="45.87025" lon="7.15687">
        <ele>2244.88300032</ele>
        <time>2014-12-22T14:50:17Z</time>
      </trkpt>
      <trkpt lat="45.87044" lon="7.15728">
        <ele>2247.9679679782</ele>
        <time>2014-12-22T14:50:48Z</time>
      </trkpt>
      <trkpt lat="45.8705" lon="7.15773">
        <ele>2251</ele>
        <time>2014-12-22T14:51:15Z</time>
      </trkpt>
      <trkpt lat="45.87049" lon="7.15812">
        <ele>2251.78300032</ele>
        <time>2014-12-22T14:51:36Z</time>
      </trkpt>
      <trkpt lat="45.87033" lon="7.15854">
        <ele>2255.192</ele>
        <time>2014-12-22T14:52:10Z</time>
      </trkpt>
      <trkpt lat="45.87016" lon="7.1588">
        <ele>2256.9859866311</ele>
        <time>2014-12-22T14:52:38Z</time>
      </trkpt>
      <trkpt lat="45.86999" lon="7.15902">
        <ele>2259.1921923769</ele>
        <time>2014-12-22T14:53:00Z</time>
      </trkpt>
      <trkpt lat="45.86976" lon="7.15934">
        <ele>2262</ele>
        <time>2014-12-22T14:53:30Z</time>
      </trkpt>
      <trkpt lat="45.86963" lon="7.15986">
        <ele>2265</ele>
        <time>2014-12-22T14:54:16Z</time>
      </trkpt>
      <trkpt lat="45.86957" lon="7.15997">
        <ele>2265</ele>
        <time>2014-12-22T14:54:27Z</time>
      </trkpt>
      <trkpt lat="45.86939" lon="7.1603">
        <ele>2268.28500096</ele>
        <time>2014-12-22T14:54:51Z</time>
      </trkpt>
      <trkpt lat="45.86935" lon="7.16038">
        <ele>2269.3729858064</ele>
        <time>2014-12-22T14:55:00Z</time>
      </trkpt>
      <trkpt lat="45.8692" lon="7.16062">
        <ele>2271.7177180871</ele>
        <time>2014-12-22T14:55:21Z</time>
      </trkpt>
      <trkpt lat="45.86916" lon="7.1608">
        <ele>2271</ele>
        <time>2014-12-22T14:55:44Z</time>
      </trkpt>
      <trkpt lat="45.86911" lon="7.16085">
        <ele>2271</ele>
        <time>2014-12-22T14:55:57Z</time>
      </trkpt>
      <trkpt lat="45.86905" lon="7.16099">
        <ele>2271.88300032</ele>
        <time>2014-12-22T14:56:07Z</time>
      </trkpt>
      <trkpt lat="45.86889" lon="7.16123">
        <ele>2275</ele>
        <time>2014-12-22T14:56:29Z</time>
      </trkpt>
      <trkpt lat="45.86885" lon="7.1613">
        <ele>2275</ele>
        <time>2014-12-22T14:56:34Z</time>
      </trkpt>
      <trkpt lat="45.86881" lon="7.16133">
        <ele>2275.08300032</ele>
        <time>2014-12-22T14:56:39Z</time>
      </trkpt>
      <trkpt lat="45.86868" lon="7.16151">
        <ele>2276.48300032</ele>
        <time>2014-12-22T14:57:03Z</time>
      </trkpt>
      <trkpt lat="45.86844" lon="7.16153">
        <ele>2279</ele>
        <time>2014-12-22T14:57:24Z</time>
      </trkpt>
      <trkpt lat="45.86841" lon="7.16154">
        <ele>2279</ele>
        <time>2014-12-22T14:57:27Z</time>
      </trkpt>
      <trkpt lat="45.86811" lon="7.16161">
        <ele>2282.98500096</ele>
        <time>2014-12-22T14:57:58Z</time>
      </trkpt>
      <trkpt lat="45.86796" lon="7.16164">
        <ele>2284</ele>
        <time>2014-12-22T14:58:15Z</time>
      </trkpt>
      <trkpt lat="45.86788" lon="7.16175">
        <ele>2284.88300032</ele>
        <time>2014-12-22T14:58:27Z</time>
      </trkpt>
      <trkpt lat="45.86767" lon="7.16218">
        <ele>2287</ele>
        <time>2014-12-22T14:59:03Z</time>
      </trkpt>
      <trkpt lat="45.8675" lon="7.1626">
        <ele>2290.78300032</ele>
        <time>2014-12-22T14:59:36Z</time>
      </trkpt>
      <trkpt lat="45.8675" lon="7.16262">
        <ele>2290.98300032</ele>
        <time>2014-12-22T14:59:38Z</time>
      </trkpt>
      <trkpt lat="45.86745" lon="7.16271">
        <ele>2293</ele>
        <time>2014-12-22T15:00:11Z</time>
      </trkpt>
      <trkpt lat="45.86746" lon="7.16271">
        <ele>2293.6203417971</ele>
        <time>2014-12-22T15:01:55Z</time>
      </trkpt>
      <trkpt lat="45.86747" lon="7.16274">
        <ele>2292.8078076231</ele>
        <time>2014-12-22T15:02:00Z</time>
      </trkpt>
      <trkpt lat="45.86743" lon="7.16303">
        <ele>2291.01699968</ele>
        <time>2014-12-22T15:02:18Z</time>
      </trkpt>
      <trkpt lat="45.86741" lon="7.16313">
        <ele>2291.96600064</ele>
        <time>2014-12-22T15:02:23Z</time>
      </trkpt>
      <trkpt lat="45.86737" lon="7.16327">
        <ele>2294.16200192</ele>
        <time>2014-12-22T15:02:34Z</time>
      </trkpt>
      <trkpt lat="45.8673" lon="7.16337">
        <ele>2295.48300032</ele>
        <time>2014-12-22T15:02:43Z</time>
      </trkpt>
      <trkpt lat="45.86726" lon="7.16343">
        <ele>2296</ele>
        <time>2014-12-22T15:02:49Z</time>
      </trkpt>
      <trkpt lat="45.86714" lon="7.16361">
        <ele>2296</ele>
        <time>2014-12-22T15:03:08Z</time>
      </trkpt>
      <trkpt lat="45.86709" lon="7.16396">
        <ele>2299.76600064</ele>
        <time>2014-12-22T15:03:27Z</time>
      </trkpt>
      <trkpt lat="45.86711" lon="7.16409">
        <ele>2300</ele>
        <time>2014-12-22T15:03:36Z</time>
      </trkpt>
      <trkpt lat="45.86722" lon="7.16442">
        <ele>2303.4885804062</ele>
        <time>2014-12-22T15:04:03Z</time>
      </trkpt>
      <trkpt lat="45.86725" lon="7.16457">
        <ele>2303.4174174982</ele>
        <time>2014-12-22T15:04:24Z</time>
      </trkpt>
      <trkpt lat="45.86738" lon="7.16482">
        <ele>2304.57000192</ele>
        <time>2014-12-22T15:04:46Z</time>
      </trkpt>
      <trkpt lat="45.86745" lon="7.16487">
        <ele>2305.77000192</ele>
        <time>2014-12-22T15:04:52Z</time>
      </trkpt>
      <trkpt lat="45.86762" lon="7.16506">
        <ele>2308</ele>
        <time>2014-12-22T15:05:15Z</time>
      </trkpt>
      <trkpt lat="45.86778" lon="7.16517">
        <ele>2309.38300032</ele>
        <time>2014-12-22T15:05:42Z</time>
      </trkpt>
      <trkpt lat="45.86778" lon="7.16519">
        <ele>2309.308</ele>
        <time>2014-12-22T15:06:05Z</time>
      </trkpt>
      <trkpt lat="45.86778" lon="7.16518">
        <ele>2308</ele>
        <time>2014-12-22T15:07:28Z</time>
      </trkpt>
      <trkpt lat="45.86779" lon="7.16516">
        <ele>2308.4824823055</ele>
        <time>2014-12-22T15:08:03Z</time>
      </trkpt>
      <trkpt lat="45.86806" lon="7.16518">
        <ele>2309.4117053968</ele>
        <time>2014-12-22T15:08:24Z</time>
      </trkpt>
      <trkpt lat="45.86845" lon="7.16529">
        <ele>2308</ele>
        <time>2014-12-22T15:08:48Z</time>
      </trkpt>
      <trkpt lat="45.86881" lon="7.1654">
        <ele>2309</ele>
        <time>2014-12-22T15:09:19Z</time>
      </trkpt>
      <trkpt lat="45.86914" lon="7.16582">
        <ele>2310</ele>
        <time>2014-12-22T15:09:53Z</time>
      </trkpt>
      <trkpt lat="45.86918" lon="7.166">
        <ele>2310</ele>
        <time>2014-12-22T15:10:03Z</time>
      </trkpt>
      <trkpt lat="45.86927" lon="7.16638">
        <ele>2310</ele>
        <time>2014-12-22T15:10:26Z</time>
      </trkpt>
      <trkpt lat="45.86928" lon="7.16658">
        <ele>2310</ele>
        <time>2014-12-22T15:10:36Z</time>
      </trkpt>
      <trkpt lat="45.86929" lon="7.16689">
        <ele>2311.585898632</ele>
        <time>2014-12-22T15:10:54Z</time>
      </trkpt>
      <trkpt lat="45.86931" lon="7.16719">
        <ele>2313</ele>
        <time>2014-12-22T15:11:13Z</time>
      </trkpt>
      <trkpt lat="45.86941" lon="7.16753">
        <ele>2314</ele>
        <time>2014-12-22T15:11:36Z</time>
      </trkpt>
      <trkpt lat="45.86945" lon="7.16775">
        <ele>2315</ele>
        <time>2014-12-22T15:11:50Z</time>
      </trkpt>
      <trkpt lat="45.86954" lon="7.16812">
        <ele>2316</ele>
        <time>2014-12-22T15:12:15Z</time>
      </trkpt>
      <trkpt lat="45.86961" lon="7.16873">
        <ele>2318.4894474004</ele>
        <time>2014-12-22T15:12:53Z</time>
      </trkpt>
      <trkpt lat="45.86956" lon="7.16906">
        <ele>2319.2870097527</ele>
        <time>2014-12-22T15:13:11Z</time>
      </trkpt>
      <trkpt lat="45.86954" lon="7.16923">
        <ele>2320.786495288</ele>
        <time>2014-12-22T15:13:26Z</time>
      </trkpt>
      <trkpt lat="45.86955" lon="7.16926">
        <ele>2320.9851052092</ele>
        <time>2014-12-22T15:13:28Z</time>
      </trkpt>
      <trkpt lat="45.8695" lon="7.16951">
        <ele>2321.77000192</ele>
        <time>2014-12-22T15:13:42Z</time>
      </trkpt>
      <trkpt lat="45.86944" lon="7.16965">
        <ele>2323</ele>
        <time>2014-12-22T15:13:52Z</time>
      </trkpt>
      <trkpt lat="45.86932" lon="7.17015">
        <ele>2326.58300032</ele>
        <time>2014-12-22T15:14:24Z</time>
      </trkpt>
      <trkpt lat="45.86911" lon="7.17044">
        <ele>2329</ele>
        <time>2014-12-22T15:15:22Z</time>
      </trkpt>
      <trkpt lat="45.86909" lon="7.1703">
        <ele>2329</ele>
        <time>2014-12-22T15:16:35Z</time>
      </trkpt>
      <trkpt lat="45.86908" lon="7.17031">
        <ele>2329</ele>
        <time>2014-12-22T15:17:49Z</time>
      </trkpt>
      <trkpt lat="45.86908" lon="7.17046">
        <ele>2328.192</ele>
        <time>2014-12-22T15:19:00Z</time>
      </trkpt>
      <trkpt lat="45.86905" lon="7.17046">
        <ele>2329.68300032</ele>
        <time>2014-12-22T15:19:25Z</time>
      </trkpt>
      <trkpt lat="45.86899" lon="7.17089">
        <ele>2330</ele>
        <time>2014-12-22T15:19:46Z</time>
      </trkpt>
      <trkpt lat="45.86915" lon="7.17177">
        <ele>2326.7621931707</ele>
        <time>2014-12-22T15:20:02Z</time>
      </trkpt>
      <trkpt lat="45.86923" lon="7.17198">
        <ele>2323.7134126829</ele>
        <time>2014-12-22T15:20:07Z</time>
      </trkpt>
      <trkpt lat="45.86913" lon="7.17207">
        <ele>2320.2549952</ele>
        <time>2014-12-22T15:20:10Z</time>
      </trkpt>
      <trkpt lat="45.86902" lon="7.17212">
        <ele>2317.2549952</ele>
        <time>2014-12-22T15:20:12Z</time>
      </trkpt>
      <trkpt lat="45.86897" lon="7.17225">
        <ele>2314.2549952</ele>
        <time>2014-12-22T15:20:14Z</time>
      </trkpt>
      <trkpt lat="45.86892" lon="7.17258">
        <ele>2309.7549952</ele>
        <time>2014-12-22T15:20:17Z</time>
      </trkpt>
      <trkpt lat="45.86885" lon="7.17286">
        <ele>2306.86799872</ele>
        <time>2014-12-22T15:20:21Z</time>
      </trkpt>
      <trkpt lat="45.8688" lon="7.17301">
        <ele>2304.86799872</ele>
        <time>2014-12-22T15:20:26Z</time>
      </trkpt>
      <trkpt lat="45.86861" lon="7.17317">
        <ele>2299.79099264</ele>
        <time>2014-12-22T15:20:30Z</time>
      </trkpt>
      <trkpt lat="45.8685" lon="7.17335">
        <ele>2295.19099264</ele>
        <time>2014-12-22T15:20:32Z</time>
      </trkpt>
      <trkpt lat="45.8684" lon="7.1735">
        <ele>2290.59099264</ele>
        <time>2014-12-22T15:20:34Z</time>
      </trkpt>
      <trkpt lat="45.86836" lon="7.17359">
        <ele>2288.29099264</ele>
        <time>2014-12-22T15:20:35Z</time>
      </trkpt>
      <trkpt lat="45.86832" lon="7.17367">
        <ele>2285.99099264</ele>
        <time>2014-12-22T15:20:36Z</time>
      </trkpt>
      <trkpt lat="45.86829" lon="7.17385">
        <ele>2281.39099264</ele>
        <time>2014-12-22T15:20:38Z</time>
      </trkpt>
      <trkpt lat="45.86833" lon="7.17399">
        <ele>2276.9980074764</ele>
        <time>2014-12-22T15:20:40Z</time>
      </trkpt>
      <trkpt lat="45.8684" lon="7.17411">
        <ele>2272.6242528037</ele>
        <time>2014-12-22T15:20:42Z</time>
      </trkpt>
      <trkpt lat="45.86847" lon="7.17423">
        <ele>2268.2504981309</ele>
        <time>2014-12-22T15:20:44Z</time>
      </trkpt>
      <trkpt lat="45.86859" lon="7.1744">
        <ele>2263.8767434581</ele>
        <time>2014-12-22T15:20:46Z</time>
      </trkpt>
      <trkpt lat="45.86872" lon="7.17457">
        <ele>2259.5029887854</ele>
        <time>2014-12-22T15:20:48Z</time>
      </trkpt>
      <trkpt lat="45.86886" lon="7.17476">
        <ele>2256.387219409</ele>
        <time>2014-12-22T15:20:50Z</time>
      </trkpt>
      <trkpt lat="45.86907" lon="7.17506">
        <ele>2252.1955999653</ele>
        <time>2014-12-22T15:20:53Z</time>
      </trkpt>
      <trkpt lat="45.86928" lon="7.1754">
        <ele>2248.0039805215</ele>
        <time>2014-12-22T15:20:56Z</time>
      </trkpt>
      <trkpt lat="45.86947" lon="7.17579">
        <ele>2243.6945496774</ele>
        <time>2014-12-22T15:21:00Z</time>
      </trkpt>
      <trkpt lat="45.86974" lon="7.17661">
        <ele>2237.33599744</ele>
        <time>2014-12-22T15:21:09Z</time>
      </trkpt>
      <trkpt lat="45.86986" lon="7.17697">
        <ele>2234.13599744</ele>
        <time>2014-12-22T15:21:13Z</time>
      </trkpt>
      <trkpt lat="45.86997" lon="7.17736">
        <ele>2230.93599744</ele>
        <time>2014-12-22T15:21:17Z</time>
      </trkpt>
      <trkpt lat="45.87006" lon="7.17766">
        <ele>2227.2767809524</ele>
        <time>2014-12-22T15:21:20Z</time>
      </trkpt>
      <trkpt lat="45.87012" lon="7.17796">
        <ele>2222.8124952381</ele>
        <time>2014-12-22T15:21:23Z</time>
      </trkpt>
      <trkpt lat="45.87025" lon="7.17834">
        <ele>2216.7112952381</ele>
        <time>2014-12-22T15:21:27Z</time>
      </trkpt>
      <trkpt lat="45.87033" lon="7.17855">
        <ele>2213.9880838095</ele>
        <time>2014-12-22T15:21:29Z</time>
      </trkpt>
      <trkpt lat="45.87048" lon="7.17881">
        <ele>2210.4166552381</ele>
        <time>2014-12-22T15:21:32Z</time>
      </trkpt>
      <trkpt lat="45.87078" lon="7.17926">
        <ele>2204.4642742857</ele>
        <time>2014-12-22T15:21:37Z</time>
      </trkpt>
      <trkpt lat="45.87096" lon="7.17951">
        <ele>2200.2845476423</ele>
        <time>2014-12-22T15:21:40Z</time>
      </trkpt>
      <trkpt lat="45.87111" lon="7.17975">
        <ele>2195.4064988618</ele>
        <time>2014-12-22T15:21:43Z</time>
      </trkpt>
      <trkpt lat="45.8712" lon="7.1799">
        <ele>2192.1544663415</ele>
        <time>2014-12-22T15:21:45Z</time>
      </trkpt>
      <trkpt lat="45.87129" lon="7.18004">
        <ele>2188.9024338211</ele>
        <time>2014-12-22T15:21:47Z</time>
      </trkpt>
      <trkpt lat="45.87134" lon="7.1801">
        <ele>2187.276417561</ele>
        <time>2014-12-22T15:21:48Z</time>
      </trkpt>
      <trkpt lat="45.8716" lon="7.1804">
        <ele>2181.68699648</ele>
        <time>2014-12-22T15:21:53Z</time>
      </trkpt>
      <trkpt lat="45.87174" lon="7.18062">
        <ele>2178.38699648</ele>
        <time>2014-12-22T15:21:56Z</time>
      </trkpt>
      <trkpt lat="45.87193" lon="7.18091">
        <ele>2174.2767771429</ele>
        <time>2014-12-22T15:22:00Z</time>
      </trkpt>
      <trkpt lat="45.87199" lon="7.18101">
        <ele>2173.38392</ele>
        <time>2014-12-22T15:22:01Z</time>
      </trkpt>
      <trkpt lat="45.87237" lon="7.18138">
        <ele>2168.0267771429</ele>
        <time>2014-12-22T15:22:07Z</time>
      </trkpt>
      <trkpt lat="45.87296" lon="7.18161">
        <ele>2165.0342735484</ele>
        <time>2014-12-22T15:22:18Z</time>
      </trkpt>
      <trkpt lat="45.87302" lon="7.18165">
        <ele>2163.7624214633</ele>
        <time>2014-12-22T15:22:19Z</time>
      </trkpt>
      <trkpt lat="45.87322" lon="7.18184">
        <ele>2159.2892632752</ele>
        <time>2014-12-22T15:22:22Z</time>
      </trkpt>
      <trkpt lat="45.87364" lon="7.18205">
        <ele>2151.8339996285</ele>
        <time>2014-12-22T15:22:27Z</time>
      </trkpt>
      <trkpt lat="45.87373" lon="7.18206">
        <ele>2150.3429468991</ele>
        <time>2014-12-22T15:22:28Z</time>
      </trkpt>
      <trkpt lat="45.87381" lon="7.18208">
        <ele>2149.0449060566</ele>
        <time>2014-12-22T15:22:29Z</time>
      </trkpt>
      <trkpt lat="45.87402" lon="7.18206">
        <ele>2145.7514907794</ele>
        <time>2014-12-22T15:22:32Z</time>
      </trkpt>
      <trkpt lat="45.87423" lon="7.18203">
        <ele>2141.3602704097</ele>
        <time>2014-12-22T15:22:36Z</time>
      </trkpt>
      <trkpt lat="45.87432" lon="7.182">
        <ele>2137.63998464</ele>
        <time>2014-12-22T15:22:39Z</time>
      </trkpt>
      <trkpt lat="45.87437" lon="7.18198">
        <ele>2136.03998464</ele>
        <time>2014-12-22T15:22:40Z</time>
      </trkpt>
      <trkpt lat="45.87448" lon="7.18199">
        <ele>2132.83998464</ele>
        <time>2014-12-22T15:22:42Z</time>
      </trkpt>
      <trkpt lat="45.87466" lon="7.18207">
        <ele>2129.63998464</ele>
        <time>2014-12-22T15:22:44Z</time>
      </trkpt>
      <trkpt lat="45.87483" lon="7.18208">
        <ele>2126.43998464</ele>
        <time>2014-12-22T15:22:46Z</time>
      </trkpt>
      <trkpt lat="45.87515" lon="7.18202">
        <ele>2120.59498752</ele>
        <time>2014-12-22T15:22:50Z</time>
      </trkpt>
      <trkpt lat="45.87523" lon="7.18199">
        <ele>2119.29498752</ele>
        <time>2014-12-22T15:22:51Z</time>
      </trkpt>
      <trkpt lat="45.87546" lon="7.18206">
        <ele>2115.39498752</ele>
        <time>2014-12-22T15:22:54Z</time>
      </trkpt>
      <trkpt lat="45.87564" lon="7.1823">
        <ele>2111.49498752</ele>
        <time>2014-12-22T15:22:57Z</time>
      </trkpt>
      <trkpt lat="45.87583" lon="7.18256">
        <ele>2107.7222722344</ele>
        <time>2014-12-22T15:23:01Z</time>
      </trkpt>
      <trkpt lat="45.87615" lon="7.18275">
        <ele>2104.5254721034</ele>
        <time>2014-12-22T15:23:05Z</time>
      </trkpt>
      <trkpt lat="45.87659" lon="7.18281">
        <ele>2101.7157154425</ele>
        <time>2014-12-22T15:23:11Z</time>
      </trkpt>
      <trkpt lat="45.87692" lon="7.18295">
        <ele>2101</ele>
        <time>2014-12-22T15:23:23Z</time>
      </trkpt>
      <trkpt lat="45.8775" lon="7.18347">
        <ele>2098.58899456</ele>
        <time>2014-12-22T15:23:39Z</time>
      </trkpt>
      <trkpt lat="45.87762" lon="7.18357">
        <ele>2095.18899456</ele>
        <time>2014-12-22T15:23:41Z</time>
      </trkpt>
      <trkpt lat="45.87774" lon="7.1836">
        <ele>2091.78899456</ele>
        <time>2014-12-22T15:23:43Z</time>
      </trkpt>
      <trkpt lat="45.87788" lon="7.18358">
        <ele>2088.38899456</ele>
        <time>2014-12-22T15:23:45Z</time>
      </trkpt>
      <trkpt lat="45.87795" lon="7.18357">
        <ele>2086.68899456</ele>
        <time>2014-12-22T15:23:46Z</time>
      </trkpt>
      <trkpt lat="45.87811" lon="7.18357">
        <ele>2083.28899456</ele>
        <time>2014-12-22T15:23:48Z</time>
      </trkpt>
      <trkpt lat="45.87834" lon="7.18355">
        <ele>2080.0932444444</ele>
        <time>2014-12-22T15:23:51Z</time>
      </trkpt>
      <trkpt lat="45.87896" lon="7.18375">
        <ele>2073.1488</ele>
        <time>2014-12-22T15:23:58Z</time>
      </trkpt>
      <trkpt lat="45.8794" lon="7.18387">
        <ele>2067.6925316129</ele>
        <time>2014-12-22T15:24:04Z</time>
      </trkpt>
      <trkpt lat="45.87978" lon="7.18385">
        <ele>2061.1699968</ele>
        <time>2014-12-22T15:24:11Z</time>
      </trkpt>
      <trkpt lat="45.88003" lon="7.18386">
        <ele>2058.1699968</ele>
        <time>2014-12-22T15:24:14Z</time>
      </trkpt>
      <trkpt lat="45.88029" lon="7.18389">
        <ele>2055.1699968</ele>
        <time>2014-12-22T15:24:17Z</time>
      </trkpt>
      <trkpt lat="45.88061" lon="7.18403">
        <ele>2051.73599744</ele>
        <time>2014-12-22T15:24:21Z</time>
      </trkpt>
      <trkpt lat="45.88108" lon="7.18415">
        <ele>2046.93599744</ele>
        <time>2014-12-22T15:24:27Z</time>
      </trkpt>
      <trkpt lat="45.88121" lon="7.18418">
        <ele>2045.50199808</ele>
        <time>2014-12-22T15:24:29Z</time>
      </trkpt>
      <trkpt lat="45.88155" lon="7.18432">
        <ele>2042.50199808</ele>
        <time>2014-12-22T15:24:34Z</time>
      </trkpt>
      <trkpt lat="45.88204" lon="7.18472">
        <ele>2037.2708266667</ele>
        <time>2014-12-22T15:24:42Z</time>
      </trkpt>
      <trkpt lat="45.88237" lon="7.18508">
        <ele>2033.10416</ele>
        <time>2014-12-22T15:24:48Z</time>
      </trkpt>
      <trkpt lat="45.88261" lon="7.18532">
        <ele>2029.9444368254</ele>
        <time>2014-12-22T15:24:52Z</time>
      </trkpt>
      <trkpt lat="45.88301" lon="7.18545">
        <ele>2025.1825320635</ele>
        <time>2014-12-22T15:24:58Z</time>
      </trkpt>
      <trkpt lat="45.88316" lon="7.1854">
        <ele>2023.8119895935</ele>
        <time>2014-12-22T15:25:00Z</time>
      </trkpt>
      <trkpt lat="45.88323" lon="7.18537">
        <ele>2023.1006074797</ele>
        <time>2014-12-22T15:25:01Z</time>
      </trkpt>
      <trkpt lat="45.88367" lon="7.18532">
        <ele>2018.8323147968</ele>
        <time>2014-12-22T15:25:07Z</time>
      </trkpt>
      <trkpt lat="45.88398" lon="7.1853">
        <ele>2015.45299712</ele>
        <time>2014-12-22T15:25:11Z</time>
      </trkpt>
      <trkpt lat="45.8843" lon="7.18528">
        <ele>2011.85299712</ele>
        <time>2014-12-22T15:25:15Z</time>
      </trkpt>
      <trkpt lat="45.88462" lon="7.18528">
        <ele>2008.41899776</ele>
        <time>2014-12-22T15:25:19Z</time>
      </trkpt>
      <trkpt lat="45.885" lon="7.18555">
        <ele>2004.21899776</ele>
        <time>2014-12-22T15:25:25Z</time>
      </trkpt>
      <trkpt lat="45.88533" lon="7.1861">
        <ele>1998.8809447619</ele>
        <time>2014-12-22T15:25:32Z</time>
      </trkpt>
      <trkpt lat="45.88551" lon="7.18644">
        <ele>1995.7063415873</ele>
        <time>2014-12-22T15:25:36Z</time>
      </trkpt>
      <trkpt lat="45.8857" lon="7.18678">
        <ele>1992.3482057143</ele>
        <time>2014-12-22T15:25:40Z</time>
      </trkpt>
      <trkpt lat="45.88588" lon="7.18715">
        <ele>1988.7767771429</ele>
        <time>2014-12-22T15:25:44Z</time>
      </trkpt>
      <trkpt lat="45.88603" lon="7.18747">
        <ele>1985.2053485714</ele>
        <time>2014-12-22T15:25:48Z</time>
      </trkpt>
      <trkpt lat="45.88619" lon="7.18787">
        <ele>1981.677843252</ele>
        <time>2014-12-22T15:25:53Z</time>
      </trkpt>
      <trkpt lat="45.8863" lon="7.18817">
        <ele>1978.8323147968</ele>
        <time>2014-12-22T15:25:57Z</time>
      </trkpt>
      <trkpt lat="45.88634" lon="7.18793">
        <ele>1975.5849984</ele>
        <time>2014-12-22T15:26:03Z</time>
      </trkpt>
      <trkpt lat="45.8863" lon="7.18777">
        <ele>1974.5849984</ele>
        <time>2014-12-22T15:26:05Z</time>
      </trkpt>
      <trkpt lat="45.88636" lon="7.18711">
        <ele>1971.23399936</ele>
        <time>2014-12-22T15:26:17Z</time>
      </trkpt>
      <trkpt lat="45.88649" lon="7.18734">
        <ele>1970.6121028571</ele>
        <time>2014-12-22T15:26:22Z</time>
      </trkpt>
      <trkpt lat="45.88662" lon="7.18761">
        <ele>1970.1160711111</ele>
        <time>2014-12-22T15:26:27Z</time>
      </trkpt>
      <trkpt lat="45.88688" lon="7.1879">
        <ele>1967.0982095238</ele>
        <time>2014-12-22T15:26:34Z</time>
      </trkpt>
      <trkpt lat="45.88713" lon="7.18816">
        <ele>1963.8119895935</ele>
        <time>2014-12-22T15:26:40Z</time>
      </trkpt>
      <trkpt lat="45.88735" lon="7.18849">
        <ele>1960.2550790244</ele>
        <time>2014-12-22T15:26:45Z</time>
      </trkpt>
      <trkpt lat="45.88745" lon="7.18863">
        <ele>1958.8323147968</ele>
        <time>2014-12-22T15:26:47Z</time>
      </trkpt>
      <trkpt lat="45.8877" lon="7.18873">
        <ele>1955.45299712</ele>
        <time>2014-12-22T15:26:51Z</time>
      </trkpt>
      <trkpt lat="45.88799" lon="7.18875">
        <ele>1951.85299712</ele>
        <time>2014-12-22T15:26:55Z</time>
      </trkpt>
      <trkpt lat="45.88828" lon="7.18874">
        <ele>1948.41899776</ele>
        <time>2014-12-22T15:26:59Z</time>
      </trkpt>
      <trkpt lat="45.88866" lon="7.18867">
        <ele>1944.91899776</ele>
        <time>2014-12-22T15:27:04Z</time>
      </trkpt>
      <trkpt lat="45.88905" lon="7.18863">
        <ele>1941.176584127</ele>
        <time>2014-12-22T15:27:09Z</time>
      </trkpt>
      <trkpt lat="45.88938" lon="7.1886">
        <ele>1937.2083301587</ele>
        <time>2014-12-22T15:27:13Z</time>
      </trkpt>
      <trkpt lat="45.88956" lon="7.18857">
        <ele>1935.2242031746</ele>
        <time>2014-12-22T15:27:15Z</time>
      </trkpt>
      <trkpt lat="45.88979" lon="7.18838">
        <ele>1932.1488</ele>
        <time>2014-12-22T15:27:18Z</time>
      </trkpt>
      <trkpt lat="45.88986" lon="7.18831">
        <ele>1931.2410628571</ele>
        <time>2014-12-22T15:27:19Z</time>
      </trkpt>
      <trkpt lat="45.89014" lon="7.18801">
        <ele>1927.6696342857</ele>
        <time>2014-12-22T15:27:23Z</time>
      </trkpt>
      <trkpt lat="45.89069" lon="7.18765">
        <ele>1921.6422738211</ele>
        <time>2014-12-22T15:27:30Z</time>
      </trkpt>
      <trkpt lat="45.89084" lon="7.18754">
        <ele>1920.016257561</ele>
        <time>2014-12-22T15:27:32Z</time>
      </trkpt>
      <trkpt lat="45.89107" lon="7.18739">
        <ele>1917.5772331707</ele>
        <time>2014-12-22T15:27:35Z</time>
      </trkpt>
      <trkpt lat="45.89135" lon="7.1871">
        <ele>1914.2589257143</ele>
        <time>2014-12-22T15:27:39Z</time>
      </trkpt>
      <trkpt lat="45.8915" lon="7.18697">
        <ele>1912.4732114286</ele>
        <time>2014-12-22T15:27:41Z</time>
      </trkpt>
      <trkpt lat="45.89174" lon="7.18686">
        <ele>1909.79464</ele>
        <time>2014-12-22T15:27:44Z</time>
      </trkpt>
      <trkpt lat="45.89205" lon="7.18672">
        <ele>1906.13392</ele>
        <time>2014-12-22T15:27:48Z</time>
      </trkpt>
      <trkpt lat="45.8923" lon="7.18665">
        <ele>1902.86498944</ele>
        <time>2014-12-22T15:27:51Z</time>
      </trkpt>
      <trkpt lat="45.89256" lon="7.18657">
        <ele>1899.56498944</ele>
        <time>2014-12-22T15:27:54Z</time>
      </trkpt>
      <trkpt lat="45.89282" lon="7.18649">
        <ele>1896.26498944</ele>
        <time>2014-12-22T15:27:57Z</time>
      </trkpt>
      <trkpt lat="45.89306" lon="7.18642">
        <ele>1893.51999232</ele>
        <time>2014-12-22T15:28:00Z</time>
      </trkpt>
      <trkpt lat="45.8934" lon="7.18643">
        <ele>1890.31999232</ele>
        <time>2014-12-22T15:28:04Z</time>
      </trkpt>
      <trkpt lat="45.89376" lon="7.18644">
        <ele>1887.11999232</ele>
        <time>2014-12-22T15:28:08Z</time>
      </trkpt>
      <trkpt lat="45.89411" lon="7.18643">
        <ele>1883.6182357558</ele>
        <time>2014-12-22T15:28:12Z</time>
      </trkpt>
      <trkpt lat="45.89446" lon="7.18641">
        <ele>1880.0110236402</ele>
        <time>2014-12-22T15:28:16Z</time>
      </trkpt>
      <trkpt lat="45.89463" lon="7.18642">
        <ele>1878.2074175824</ele>
        <time>2014-12-22T15:28:18Z</time>
      </trkpt>
      <trkpt lat="45.89497" lon="7.18653">
        <ele>1874.9101751123</ele>
        <time>2014-12-22T15:28:22Z</time>
      </trkpt>
      <trkpt lat="45.8953" lon="7.18667">
        <ele>1871.716560298</ele>
        <time>2014-12-22T15:28:26Z</time>
      </trkpt>
      <trkpt lat="45.89564" lon="7.18676">
        <ele>1868.1499904</ele>
        <time>2014-12-22T15:28:30Z</time>
      </trkpt>
      <trkpt lat="45.8959" lon="7.1868">
        <ele>1865.1499904</ele>
        <time>2014-12-22T15:28:33Z</time>
      </trkpt>
      <trkpt lat="45.89617" lon="7.18683">
        <ele>1862.1499904</ele>
        <time>2014-12-22T15:28:36Z</time>
      </trkpt>
      <trkpt lat="45.89634" lon="7.18686">
        <ele>1860.1499904</ele>
        <time>2014-12-22T15:28:38Z</time>
      </trkpt>
      <trkpt lat="45.89668" lon="7.18699">
        <ele>1856.53499136</ele>
        <time>2014-12-22T15:28:42Z</time>
      </trkpt>
      <trkpt lat="45.89701" lon="7.18707">
        <ele>1852.93499136</ele>
        <time>2014-12-22T15:28:46Z</time>
      </trkpt>
      <trkpt lat="45.89742" lon="7.18715">
        <ele>1849.85999616</ele>
        <time>2014-12-22T15:28:51Z</time>
      </trkpt>
      <trkpt lat="45.89803" lon="7.18747">
        <ele>1845.3035657143</ele>
        <time>2014-12-22T15:29:01Z</time>
      </trkpt>
      <trkpt lat="45.89851" lon="7.18826">
        <ele>1839.1331265041</ele>
        <time>2014-12-22T15:29:10Z</time>
      </trkpt>
      <trkpt lat="45.89862" lon="7.18846">
        <ele>1836.8973541463</ele>
        <time>2014-12-22T15:29:12Z</time>
      </trkpt>
      <trkpt lat="45.89874" lon="7.1888">
        <ele>1833.5436956098</ele>
        <time>2014-12-22T15:29:15Z</time>
      </trkpt>
      <trkpt lat="45.89887" lon="7.18916">
        <ele>1830.1900370732</ele>
        <time>2014-12-22T15:29:18Z</time>
      </trkpt>
      <trkpt lat="45.89902" lon="7.18964">
        <ele>1826.55299712</ele>
        <time>2014-12-22T15:29:22Z</time>
      </trkpt>
      <trkpt lat="45.89905" lon="7.18976">
        <ele>1825.65299712</ele>
        <time>2014-12-22T15:29:23Z</time>
      </trkpt>
      <trkpt lat="45.89905" lon="7.19028">
        <ele>1822.05299712</ele>
        <time>2014-12-22T15:29:27Z</time>
      </trkpt>
      <trkpt lat="45.89896" lon="7.19068">
        <ele>1819.35299712</ele>
        <time>2014-12-22T15:29:30Z</time>
      </trkpt>
      <trkpt lat="45.89875" lon="7.19138">
        <ele>1813.95299712</ele>
        <time>2014-12-22T15:29:36Z</time>
      </trkpt>
      <trkpt lat="45.89851" lon="7.19184">
        <ele>1810.912</ele>
        <time>2014-12-22T15:29:41Z</time>
      </trkpt>
      <trkpt lat="45.89849" lon="7.19193">
        <ele>1810.51199488</ele>
        <time>2014-12-22T15:29:42Z</time>
      </trkpt>
      <trkpt lat="45.89847" lon="7.19202">
        <ele>1810.112</ele>
        <time>2014-12-22T15:29:43Z</time>
      </trkpt>
      <trkpt lat="45.89818" lon="7.19282">
        <ele>1806.5624990476</ele>
        <time>2014-12-22T15:29:53Z</time>
      </trkpt>
      <trkpt lat="45.89805" lon="7.19346">
        <ele>1804.1381019355</ele>
        <time>2014-12-22T15:30:01Z</time>
      </trkpt>
      <trkpt lat="45.89831" lon="7.19461">
        <ele>1798.46799872</ele>
        <time>2014-12-22T15:30:17Z</time>
      </trkpt>
      <trkpt lat="45.89874" lon="7.19538">
        <ele>1797.40699904</ele>
        <time>2014-12-22T15:30:34Z</time>
      </trkpt>
      <trkpt lat="45.89918" lon="7.19562">
        <ele>1793.8866806287</ele>
        <time>2014-12-22T15:30:46Z</time>
      </trkpt>
      <trkpt lat="45.89926" lon="7.19566">
        <ele>1792.0149691114</ele>
        <time>2014-12-22T15:30:58Z</time>
      </trkpt>
      <trkpt lat="45.89931" lon="7.19572">
        <ele>1792</ele>
        <time>2014-12-22T15:31:21Z</time>
      </trkpt>
      <trkpt lat="45.8995" lon="7.19572">
        <ele>1792</ele>
        <time>2014-12-22T15:32:00Z</time>
      </trkpt>
      <trkpt lat="45.89952" lon="7.19577">
        <ele>1791.1914692063</ele>
        <time>2014-12-22T15:33:20Z</time>
      </trkpt>
      <trkpt lat="45.89948" lon="7.19577">
        <ele>1790.9345123889</ele>
        <time>2014-12-22T15:33:57Z</time>
      </trkpt>
    </trkseg>
  </trk>
</gpx>